<?xml version="1.0" encoding="UTF-8" standalone="no" ?>
<gpx xmlns="http://www.topografix.com/GPX/1/1" xmlns:xsi="http://www.w3.org/2001/XMLSchema-instance" xsi:schemaLocation="http://www.topografix.com/GPX/1/1 http://www.topografix.com/GPX/1/1/gpx.xsd" version="1.1" creator="VisuGPX - https://www.visugpx.com">
  <metadata>
    <name>Quissac</name>
    <desc><![CDATA[VTT Gard Quissac 30kms]]></desc>
  </metadata>
  <trk>
    <name><![CDATA[Rando VTT Quissac Coutach - 35 km - 8385 - UtagawaVTT.com]]></name>
    <trkseg>
      <trkpt lat="43.91249" lon="3.995">
        <ele>81.1175</ele>
        <time>2014-06-22T06:20:30Z</time>
      </trkpt>
      <trkpt lat="43.91236" lon="3.99497">
        <ele>80.732498</ele>
        <time>2014-06-22T06:20:37Z</time>
      </trkpt>
      <trkpt lat="43.91216" lon="3.99513">
        <ele>80.807503</ele>
        <time>2014-06-22T06:20:46Z</time>
      </trkpt>
      <trkpt lat="43.91199" lon="3.99513">
        <ele>80.457497</ele>
        <time>2014-06-22T06:20:52Z</time>
      </trkpt>
      <trkpt lat="43.91169" lon="3.99538">
        <ele>80.6175</ele>
        <time>2014-06-22T06:21:03Z</time>
      </trkpt>
      <trkpt lat="43.91164" lon="3.99584">
        <ele>81.587502</ele>
        <time>2014-06-22T06:21:14Z</time>
      </trkpt>
      <trkpt lat="43.91175" lon="3.99641">
        <ele>82.761253</ele>
        <time>2014-06-22T06:21:27Z</time>
      </trkpt>
      <trkpt lat="43.91181" lon="3.9967">
        <ele>83.362503</ele>
        <time>2014-06-22T06:21:34Z</time>
      </trkpt>
      <trkpt lat="43.91172" lon="3.99701">
        <ele>83.377502</ele>
        <time>2014-06-22T06:21:41Z</time>
      </trkpt>
      <trkpt lat="43.91151" lon="3.99717">
        <ele>82.809998</ele>
        <time>2014-06-22T06:21:46Z</time>
      </trkpt>
      <trkpt lat="43.91109" lon="3.99748">
        <ele>81.078751</ele>
        <time>2014-06-22T06:21:57Z</time>
      </trkpt>
      <trkpt lat="43.91115" lon="3.99769">
        <ele>81.631721</ele>
        <time>2014-06-22T06:22:01Z</time>
      </trkpt>
      <trkpt lat="43.91131" lon="3.99798">
        <ele>82.448128</ele>
        <time>2014-06-22T06:22:08Z</time>
      </trkpt>
      <trkpt lat="43.91155" lon="3.99803">
        <ele>83.044075</ele>
        <time>2014-06-22T06:22:15Z</time>
      </trkpt>
      <trkpt lat="43.91174" lon="3.99809">
        <ele>83.915001</ele>
        <time>2014-06-22T06:22:22Z</time>
      </trkpt>
      <trkpt lat="43.91192" lon="3.99816">
        <ele>84.705002</ele>
        <time>2014-06-22T06:22:28Z</time>
      </trkpt>
      <trkpt lat="43.91239" lon="3.99818">
        <ele>86.060638</ele>
        <time>2014-06-22T06:22:41Z</time>
      </trkpt>
      <trkpt lat="43.91294" lon="3.9982">
        <ele>88.1325</ele>
        <time>2014-06-22T06:22:54Z</time>
      </trkpt>
      <trkpt lat="43.91303" lon="3.99822">
        <ele>88.322502</ele>
        <time>2014-06-22T06:22:56Z</time>
      </trkpt>
      <trkpt lat="43.91337" lon="3.99828">
        <ele>89.089996</ele>
        <time>2014-06-22T06:23:04Z</time>
      </trkpt>
      <trkpt lat="43.91367" lon="3.99841">
        <ele>89.747498</ele>
        <time>2014-06-22T06:23:11Z</time>
      </trkpt>
      <trkpt lat="43.91393" lon="3.99867">
        <ele>90.337502</ele>
        <time>2014-06-22T06:23:19Z</time>
      </trkpt>
      <trkpt lat="43.91426" lon="3.99909">
        <ele>91.043015</ele>
        <time>2014-06-22T06:23:31Z</time>
      </trkpt>
      <trkpt lat="43.91462" lon="3.99955">
        <ele>90.487503</ele>
        <time>2014-06-22T06:23:44Z</time>
      </trkpt>
      <trkpt lat="43.91501" lon="3.99994">
        <ele>89.948158</ele>
        <time>2014-06-22T06:23:54Z</time>
      </trkpt>
      <trkpt lat="43.91511" lon="4.00001">
        <ele>90.016457</ele>
        <time>2014-06-22T06:23:56Z</time>
      </trkpt>
      <trkpt lat="43.91532" lon="4.0002">
        <ele>89.717499</ele>
        <time>2014-06-22T06:24:00Z</time>
      </trkpt>
      <trkpt lat="43.91543" lon="4.00037">
        <ele>89.452499</ele>
        <time>2014-06-22T06:24:03Z</time>
      </trkpt>
      <trkpt lat="43.91548" lon="4.00049">
        <ele>89.264999</ele>
        <time>2014-06-22T06:24:05Z</time>
      </trkpt>
      <trkpt lat="43.91575" lon="4.00068">
        <ele>89.456978</ele>
        <time>2014-06-22T06:24:13Z</time>
      </trkpt>
      <trkpt lat="43.91566" lon="4.00096">
        <ele>89.137428</ele>
        <time>2014-06-22T06:24:20Z</time>
      </trkpt>
      <trkpt lat="43.91564" lon="4.0014">
        <ele>88.859848</ele>
        <time>2014-06-22T06:24:25Z</time>
      </trkpt>
      <trkpt lat="43.91566" lon="4.00163">
        <ele>88.595901</ele>
        <time>2014-06-22T06:24:28Z</time>
      </trkpt>
      <trkpt lat="43.91565" lon="4.00217">
        <ele>88.59198</ele>
        <time>2014-06-22T06:24:37Z</time>
      </trkpt>
      <trkpt lat="43.91563" lon="4.00276">
        <ele>89</ele>
        <time>2014-06-22T06:24:47Z</time>
      </trkpt>
      <trkpt lat="43.9156" lon="4.00331">
        <ele>89.680267</ele>
        <time>2014-06-22T06:24:56Z</time>
      </trkpt>
      <trkpt lat="43.9156" lon="4.00374">
        <ele>91.406662</ele>
        <time>2014-06-22T06:25:03Z</time>
      </trkpt>
      <trkpt lat="43.91555" lon="4.00395">
        <ele>92.383789</ele>
        <time>2014-06-22T06:25:07Z</time>
      </trkpt>
      <trkpt lat="43.91543" lon="4.00412">
        <ele>93.33625</ele>
        <time>2014-06-22T06:25:11Z</time>
      </trkpt>
      <trkpt lat="43.91534" lon="4.00441">
        <ele>94.737152</ele>
        <time>2014-06-22T06:25:19Z</time>
      </trkpt>
      <trkpt lat="43.91531" lon="4.00474">
        <ele>96.242966</ele>
        <time>2014-06-22T06:25:25Z</time>
      </trkpt>
      <trkpt lat="43.91528" lon="4.00507">
        <ele>97.604927</ele>
        <time>2014-06-22T06:25:31Z</time>
      </trkpt>
      <trkpt lat="43.91525" lon="4.00545">
        <ele>98.570358</ele>
        <time>2014-06-22T06:25:38Z</time>
      </trkpt>
      <trkpt lat="43.91522" lon="4.00587">
        <ele>99.400002</ele>
        <time>2014-06-22T06:25:46Z</time>
      </trkpt>
      <trkpt lat="43.9152" lon="4.0061">
        <ele>99.771248</ele>
        <time>2014-06-22T06:25:51Z</time>
      </trkpt>
      <trkpt lat="43.91517" lon="4.00633">
        <ele>100.08493</ele>
        <time>2014-06-22T06:25:56Z</time>
      </trkpt>
      <trkpt lat="43.91509" lon="4.0065">
        <ele>100.343315</ele>
        <time>2014-06-22T06:26:01Z</time>
      </trkpt>
      <trkpt lat="43.91497" lon="4.00668">
        <ele>100.725342</ele>
        <time>2014-06-22T06:26:06Z</time>
      </trkpt>
      <trkpt lat="43.91484" lon="4.00689">
        <ele>101.162315</ele>
        <time>2014-06-22T06:26:12Z</time>
      </trkpt>
      <trkpt lat="43.9146" lon="4.00735">
        <ele>102.724663</ele>
        <time>2014-06-22T06:26:24Z</time>
      </trkpt>
      <trkpt lat="43.91452" lon="4.00754">
        <ele>103.297997</ele>
        <time>2014-06-22T06:26:29Z</time>
      </trkpt>
      <trkpt lat="43.91457" lon="4.00776">
        <ele>104.46875</ele>
        <time>2014-06-22T06:26:36Z</time>
      </trkpt>
      <trkpt lat="43.91479" lon="4.00799">
        <ele>106.042503</ele>
        <time>2014-06-22T06:26:44Z</time>
      </trkpt>
      <trkpt lat="43.91497" lon="4.00819">
        <ele>107.699234</ele>
        <time>2014-06-22T06:26:51Z</time>
      </trkpt>
      <trkpt lat="43.91506" lon="4.00837">
        <ele>109.20295</ele>
        <time>2014-06-22T06:26:57Z</time>
      </trkpt>
      <trkpt lat="43.91516" lon="4.00854">
        <ele>110.562241</ele>
        <time>2014-06-22T06:27:03Z</time>
      </trkpt>
      <trkpt lat="43.91527" lon="4.00875">
        <ele>112.183868</ele>
        <time>2014-06-22T06:27:11Z</time>
      </trkpt>
      <trkpt lat="43.91533" lon="4.00892">
        <ele>113.669655</ele>
        <time>2014-06-22T06:27:18Z</time>
      </trkpt>
      <trkpt lat="43.91545" lon="4.00914">
        <ele>115.882004</ele>
        <time>2014-06-22T06:27:27Z</time>
      </trkpt>
      <trkpt lat="43.91553" lon="4.0093">
        <ele>117.593742</ele>
        <time>2014-06-22T06:27:34Z</time>
      </trkpt>
      <trkpt lat="43.91557" lon="4.00936">
        <ele>118.313278</ele>
        <time>2014-06-22T06:27:38Z</time>
      </trkpt>
      <trkpt lat="43.91562" lon="4.00948">
        <ele>119.542503</ele>
        <time>2014-06-22T06:27:43Z</time>
      </trkpt>
      <trkpt lat="43.91565" lon="4.00956">
        <ele>120.372498</ele>
        <time>2014-06-22T06:27:49Z</time>
      </trkpt>
      <trkpt lat="43.91567" lon="4.00968">
        <ele>121.595001</ele>
        <time>2014-06-22T06:27:54Z</time>
      </trkpt>
      <trkpt lat="43.91573" lon="4.0097">
        <ele>121.942497</ele>
        <time>2014-06-22T06:27:58Z</time>
      </trkpt>
      <trkpt lat="43.91598" lon="4.0097">
        <ele>121.413551</ele>
        <time>2014-06-22T06:28:09Z</time>
      </trkpt>
      <trkpt lat="43.91614" lon="4.00979">
        <ele>121.23761</ele>
        <time>2014-06-22T06:28:16Z</time>
      </trkpt>
      <trkpt lat="43.91627" lon="4.00989">
        <ele>121.243896</ele>
        <time>2014-06-22T06:28:22Z</time>
      </trkpt>
      <trkpt lat="43.91642" lon="4.01019">
        <ele>122.517349</ele>
        <time>2014-06-22T06:28:30Z</time>
      </trkpt>
      <trkpt lat="43.91655" lon="4.01052">
        <ele>124.183113</ele>
        <time>2014-06-22T06:28:39Z</time>
      </trkpt>
      <trkpt lat="43.91671" lon="4.01075">
        <ele>124.874794</ele>
        <time>2014-06-22T06:28:46Z</time>
      </trkpt>
      <trkpt lat="43.91699" lon="4.01104">
        <ele>125.6259</ele>
        <time>2014-06-22T06:28:57Z</time>
      </trkpt>
      <trkpt lat="43.91718" lon="4.01131">
        <ele>126.43</ele>
        <time>2014-06-22T06:29:08Z</time>
      </trkpt>
      <trkpt lat="43.91723" lon="4.01141">
        <ele>127.487503</ele>
        <time>2014-06-22T06:29:12Z</time>
      </trkpt>
      <trkpt lat="43.91728" lon="4.01151">
        <ele>128.384964</ele>
        <time>2014-06-22T06:29:16Z</time>
      </trkpt>
      <trkpt lat="43.91736" lon="4.0116">
        <ele>128.817703</ele>
        <time>2014-06-22T06:29:21Z</time>
      </trkpt>
      <trkpt lat="43.9175" lon="4.01184">
        <ele>129.79985</ele>
        <time>2014-06-22T06:29:32Z</time>
      </trkpt>
      <trkpt lat="43.91755" lon="4.01191">
        <ele>129.738953</ele>
        <time>2014-06-22T06:29:40Z</time>
      </trkpt>
      <trkpt lat="43.91766" lon="4.01217">
        <ele>131.329147</ele>
        <time>2014-06-22T06:29:52Z</time>
      </trkpt>
      <trkpt lat="43.91769" lon="4.01235">
        <ele>132.850159</ele>
        <time>2014-06-22T06:29:59Z</time>
      </trkpt>
      <trkpt lat="43.91778" lon="4.01259">
        <ele>134.682068</ele>
        <time>2014-06-22T06:30:07Z</time>
      </trkpt>
      <trkpt lat="43.91781" lon="4.01269">
        <ele>135.326706</ele>
        <time>2014-06-22T06:30:10Z</time>
      </trkpt>
      <trkpt lat="43.91789" lon="4.01288">
        <ele>136.322647</ele>
        <time>2014-06-22T06:30:16Z</time>
      </trkpt>
      <trkpt lat="43.91805" lon="4.01322">
        <ele>137.085007</ele>
        <time>2014-06-22T06:30:28Z</time>
      </trkpt>
      <trkpt lat="43.91805" lon="4.01326">
        <ele>137.18898</ele>
        <time>2014-06-22T06:30:30Z</time>
      </trkpt>
      <trkpt lat="43.91801" lon="4.01345">
        <ele>137.712708</ele>
        <time>2014-06-22T06:30:36Z</time>
      </trkpt>
      <trkpt lat="43.91799" lon="4.01353">
        <ele>137.98642</ele>
        <time>2014-06-22T06:30:39Z</time>
      </trkpt>
      <trkpt lat="43.91802" lon="4.01365">
        <ele>137.990494</ele>
        <time>2014-06-22T06:30:43Z</time>
      </trkpt>
      <trkpt lat="43.91805" lon="4.01368">
        <ele>137.95047</ele>
        <time>2014-06-22T06:30:46Z</time>
      </trkpt>
      <trkpt lat="43.91808" lon="4.01376">
        <ele>138.396011</ele>
        <time>2014-06-22T06:30:53Z</time>
      </trkpt>
      <trkpt lat="43.91805" lon="4.01384">
        <ele>137.986893</ele>
        <time>2014-06-22T06:30:56Z</time>
      </trkpt>
      <trkpt lat="43.91802" lon="4.01391">
        <ele>137.779999</ele>
        <time>2014-06-22T06:31:00Z</time>
      </trkpt>
      <trkpt lat="43.91797" lon="4.01394">
        <ele>138.232498</ele>
        <time>2014-06-22T06:31:03Z</time>
      </trkpt>
      <trkpt lat="43.9178" lon="4.01399">
        <ele>139.942505</ele>
        <time>2014-06-22T06:31:11Z</time>
      </trkpt>
      <trkpt lat="43.91765" lon="4.01398">
        <ele>141.619995</ele>
        <time>2014-06-22T06:31:18Z</time>
      </trkpt>
      <trkpt lat="43.91754" lon="4.01403">
        <ele>142.724503</ele>
        <time>2014-06-22T06:31:24Z</time>
      </trkpt>
      <trkpt lat="43.91749" lon="4.01401">
        <ele>143.311005</ele>
        <time>2014-06-22T06:31:27Z</time>
      </trkpt>
      <trkpt lat="43.91746" lon="4.01399">
        <ele>143.805084</ele>
        <time>2014-06-22T06:31:29Z</time>
      </trkpt>
      <trkpt lat="43.91737" lon="4.01395">
        <ele>145.189621</ele>
        <time>2014-06-22T06:31:34Z</time>
      </trkpt>
      <trkpt lat="43.91726" lon="4.01396">
        <ele>146.359726</ele>
        <time>2014-06-22T06:31:39Z</time>
      </trkpt>
      <trkpt lat="43.91712" lon="4.01394">
        <ele>148.218048</ele>
        <time>2014-06-22T06:31:46Z</time>
      </trkpt>
      <trkpt lat="43.91703" lon="4.01401">
        <ele>147.871323</ele>
        <time>2014-06-22T06:31:52Z</time>
      </trkpt>
      <trkpt lat="43.91694" lon="4.01415">
        <ele>146.111557</ele>
        <time>2014-06-22T06:31:57Z</time>
      </trkpt>
      <trkpt lat="43.91684" lon="4.01444">
        <ele>141.031113</ele>
        <time>2014-06-22T06:32:04Z</time>
      </trkpt>
      <trkpt lat="43.91677" lon="4.01464">
        <ele>137.124664</ele>
        <time>2014-06-22T06:32:08Z</time>
      </trkpt>
      <trkpt lat="43.91676" lon="4.01473">
        <ele>135.281998</ele>
        <time>2014-06-22T06:32:10Z</time>
      </trkpt>
      <trkpt lat="43.91674" lon="4.01482">
        <ele>133.461319</ele>
        <time>2014-06-22T06:32:12Z</time>
      </trkpt>
      <trkpt lat="43.91671" lon="4.01491">
        <ele>131.601257</ele>
        <time>2014-06-22T06:32:15Z</time>
      </trkpt>
      <trkpt lat="43.91667" lon="4.01493">
        <ele>131.238434</ele>
        <time>2014-06-22T06:32:18Z</time>
      </trkpt>
      <trkpt lat="43.91662" lon="4.01492">
        <ele>130.604721</ele>
        <time>2014-06-22T06:32:20Z</time>
      </trkpt>
      <trkpt lat="43.91656" lon="4.01494">
        <ele>129.123886</ele>
        <time>2014-06-22T06:32:23Z</time>
      </trkpt>
      <trkpt lat="43.91653" lon="4.01497">
        <ele>127.921188</ele>
        <time>2014-06-22T06:32:25Z</time>
      </trkpt>
      <trkpt lat="43.91646" lon="4.01505">
        <ele>124.760719</ele>
        <time>2014-06-22T06:32:29Z</time>
      </trkpt>
      <trkpt lat="43.91639" lon="4.01509">
        <ele>122.670471</ele>
        <time>2014-06-22T06:32:31Z</time>
      </trkpt>
      <trkpt lat="43.91634" lon="4.01515">
        <ele>120.501091</ele>
        <time>2014-06-22T06:32:33Z</time>
      </trkpt>
      <trkpt lat="43.91625" lon="4.01531">
        <ele>115.591728</ele>
        <time>2014-06-22T06:32:37Z</time>
      </trkpt>
      <trkpt lat="43.91625" lon="4.01549">
        <ele>111.83551</ele>
        <time>2014-06-22T06:32:40Z</time>
      </trkpt>
      <trkpt lat="43.91628" lon="4.01558">
        <ele>110.392822</ele>
        <time>2014-06-22T06:32:42Z</time>
      </trkpt>
      <trkpt lat="43.9163" lon="4.01569">
        <ele>108.476898</ele>
        <time>2014-06-22T06:32:45Z</time>
      </trkpt>
      <trkpt lat="43.91637" lon="4.01593">
        <ele>104.793503</ele>
        <time>2014-06-22T06:32:50Z</time>
      </trkpt>
      <trkpt lat="43.91647" lon="4.01602">
        <ele>103.77829</ele>
        <time>2014-06-22T06:32:54Z</time>
      </trkpt>
      <trkpt lat="43.91657" lon="4.01599">
        <ele>105.020447</ele>
        <time>2014-06-22T06:32:57Z</time>
      </trkpt>
      <trkpt lat="43.91678" lon="4.01591">
        <ele>107.4375</ele>
        <time>2014-06-22T06:33:05Z</time>
      </trkpt>
      <trkpt lat="43.91683" lon="4.01588">
        <ele>108.260002</ele>
        <time>2014-06-22T06:33:07Z</time>
      </trkpt>
      <trkpt lat="43.91694" lon="4.01593">
        <ele>107.07</ele>
        <time>2014-06-22T06:33:11Z</time>
      </trkpt>
      <trkpt lat="43.91708" lon="4.01583">
        <ele>109.485001</ele>
        <time>2014-06-22T06:33:18Z</time>
      </trkpt>
      <trkpt lat="43.91727" lon="4.01591">
        <ele>107.137238</ele>
        <time>2014-06-22T06:33:22Z</time>
      </trkpt>
      <trkpt lat="43.91755" lon="4.01577">
        <ele>108.572472</ele>
        <time>2014-06-22T06:33:29Z</time>
      </trkpt>
      <trkpt lat="43.91791" lon="4.01563">
        <ele>110.008751</ele>
        <time>2014-06-22T06:33:39Z</time>
      </trkpt>
      <trkpt lat="43.91807" lon="4.01562">
        <ele>109.7584</ele>
        <time>2014-06-22T06:33:44Z</time>
      </trkpt>
      <trkpt lat="43.91819" lon="4.01576">
        <ele>106.964996</ele>
        <time>2014-06-22T06:33:48Z</time>
      </trkpt>
      <trkpt lat="43.91833" lon="4.01579">
        <ele>106.287498</ele>
        <time>2014-06-22T06:33:51Z</time>
      </trkpt>
      <trkpt lat="43.91849" lon="4.01587">
        <ele>104.63678</ele>
        <time>2014-06-22T06:33:55Z</time>
      </trkpt>
      <trkpt lat="43.91868" lon="4.01585">
        <ele>104.305367</ele>
        <time>2014-06-22T06:33:59Z</time>
      </trkpt>
      <trkpt lat="43.9188" lon="4.0158">
        <ele>104.680176</ele>
        <time>2014-06-22T06:34:02Z</time>
      </trkpt>
      <trkpt lat="43.919" lon="4.01576">
        <ele>104.340401</ele>
        <time>2014-06-22T06:34:07Z</time>
      </trkpt>
      <trkpt lat="43.91916" lon="4.01585">
        <ele>102.25769</ele>
        <time>2014-06-22T06:34:11Z</time>
      </trkpt>
      <trkpt lat="43.91916" lon="4.01595">
        <ele>101.044373</ele>
        <time>2014-06-22T06:34:14Z</time>
      </trkpt>
      <trkpt lat="43.91906" lon="4.01597">
        <ele>101.204727</ele>
        <time>2014-06-22T06:34:17Z</time>
      </trkpt>
      <trkpt lat="43.91882" lon="4.01599">
        <ele>101.854095</ele>
        <time>2014-06-22T06:34:23Z</time>
      </trkpt>
      <trkpt lat="43.91862" lon="4.01604">
        <ele>101.586807</ele>
        <time>2014-06-22T06:34:28Z</time>
      </trkpt>
      <trkpt lat="43.91839" lon="4.01608">
        <ele>101.5075</ele>
        <time>2014-06-22T06:34:33Z</time>
      </trkpt>
      <trkpt lat="43.91799" lon="4.01613">
        <ele>101.389252</ele>
        <time>2014-06-22T06:34:42Z</time>
      </trkpt>
      <trkpt lat="43.91776" lon="4.01616">
        <ele>100.926888</ele>
        <time>2014-06-22T06:34:47Z</time>
      </trkpt>
      <trkpt lat="43.91748" lon="4.01621">
        <ele>100.1427</ele>
        <time>2014-06-22T06:34:53Z</time>
      </trkpt>
      <trkpt lat="43.91729" lon="4.01624">
        <ele>100.002373</ele>
        <time>2014-06-22T06:34:57Z</time>
      </trkpt>
      <trkpt lat="43.91696" lon="4.0163">
        <ele>99.360001</ele>
        <time>2014-06-22T06:35:04Z</time>
      </trkpt>
      <trkpt lat="43.91677" lon="4.01631">
        <ele>99.129997</ele>
        <time>2014-06-22T06:35:08Z</time>
      </trkpt>
      <trkpt lat="43.91661" lon="4.01629">
        <ele>99.275002</ele>
        <time>2014-06-22T06:35:13Z</time>
      </trkpt>
      <trkpt lat="43.91643" lon="4.01629">
        <ele>98.787498</ele>
        <time>2014-06-22T06:35:19Z</time>
      </trkpt>
      <trkpt lat="43.91623" lon="4.01623">
        <ele>98.970001</ele>
        <time>2014-06-22T06:35:27Z</time>
      </trkpt>
      <trkpt lat="43.91599" lon="4.01613">
        <ele>99.328201</ele>
        <time>2014-06-22T06:35:36Z</time>
      </trkpt>
      <trkpt lat="43.91585" lon="4.01596">
        <ele>100.878922</ele>
        <time>2014-06-22T06:35:42Z</time>
      </trkpt>
      <trkpt lat="43.91565" lon="4.01572">
        <ele>103.059998</ele>
        <time>2014-06-22T06:35:50Z</time>
      </trkpt>
      <trkpt lat="43.91558" lon="4.01564">
        <ele>103.917503</ele>
        <time>2014-06-22T06:35:53Z</time>
      </trkpt>
      <trkpt lat="43.91541" lon="4.01544">
        <ele>106.793777</ele>
        <time>2014-06-22T06:36:00Z</time>
      </trkpt>
      <trkpt lat="43.91534" lon="4.01535">
        <ele>108.060814</ele>
        <time>2014-06-22T06:36:03Z</time>
      </trkpt>
      <trkpt lat="43.91515" lon="4.01514">
        <ele>109.917038</ele>
        <time>2014-06-22T06:36:11Z</time>
      </trkpt>
      <trkpt lat="43.91505" lon="4.01502">
        <ele>110.690208</ele>
        <time>2014-06-22T06:36:15Z</time>
      </trkpt>
      <trkpt lat="43.91489" lon="4.01483">
        <ele>112.693695</ele>
        <time>2014-06-22T06:36:22Z</time>
      </trkpt>
      <trkpt lat="43.91481" lon="4.01475">
        <ele>113.244247</ele>
        <time>2014-06-22T06:36:25Z</time>
      </trkpt>
      <trkpt lat="43.91464" lon="4.01457">
        <ele>114.522873</ele>
        <time>2014-06-22T06:36:32Z</time>
      </trkpt>
      <trkpt lat="43.91452" lon="4.0144">
        <ele>115.806099</ele>
        <time>2014-06-22T06:36:38Z</time>
      </trkpt>
      <trkpt lat="43.91432" lon="4.01417">
        <ele>117.841019</ele>
        <time>2014-06-22T06:36:47Z</time>
      </trkpt>
      <trkpt lat="43.91423" lon="4.01408">
        <ele>118.251297</ele>
        <time>2014-06-22T06:36:51Z</time>
      </trkpt>
      <trkpt lat="43.91411" lon="4.01399">
        <ele>118.286148</ele>
        <time>2014-06-22T06:36:56Z</time>
      </trkpt>
      <trkpt lat="43.91403" lon="4.01389">
        <ele>118.389572</ele>
        <time>2014-06-22T06:37:01Z</time>
      </trkpt>
      <trkpt lat="43.91389" lon="4.01382">
        <ele>119.359978</ele>
        <time>2014-06-22T06:37:07Z</time>
      </trkpt>
      <trkpt lat="43.91383" lon="4.01377">
        <ele>120.108826</ele>
        <time>2014-06-22T06:37:10Z</time>
      </trkpt>
      <trkpt lat="43.91376" lon="4.01378">
        <ele>120.507202</ele>
        <time>2014-06-22T06:37:14Z</time>
      </trkpt>
      <trkpt lat="43.91372" lon="4.01391">
        <ele>120.289848</ele>
        <time>2014-06-22T06:37:18Z</time>
      </trkpt>
      <trkpt lat="43.91366" lon="4.01444">
        <ele>118.707565</ele>
        <time>2014-06-22T06:37:29Z</time>
      </trkpt>
      <trkpt lat="43.91367" lon="4.01492">
        <ele>114.732498</ele>
        <time>2014-06-22T06:37:37Z</time>
      </trkpt>
      <trkpt lat="43.91366" lon="4.01512">
        <ele>112.728752</ele>
        <time>2014-06-22T06:37:41Z</time>
      </trkpt>
      <trkpt lat="43.91366" lon="4.0153">
        <ele>110.418747</ele>
        <time>2014-06-22T06:37:44Z</time>
      </trkpt>
      <trkpt lat="43.91361" lon="4.01547">
        <ele>110.071251</ele>
        <time>2014-06-22T06:37:47Z</time>
      </trkpt>
      <trkpt lat="43.91353" lon="4.01572">
        <ele>109.437698</ele>
        <time>2014-06-22T06:37:51Z</time>
      </trkpt>
      <trkpt lat="43.91353" lon="4.01605">
        <ele>105.694725</ele>
        <time>2014-06-22T06:37:55Z</time>
      </trkpt>
      <trkpt lat="43.91349" lon="4.01637">
        <ele>103.334999</ele>
        <time>2014-06-22T06:38:02Z</time>
      </trkpt>
      <trkpt lat="43.91344" lon="4.0165">
        <ele>103.065002</ele>
        <time>2014-06-22T06:38:05Z</time>
      </trkpt>
      <trkpt lat="43.9134" lon="4.01678">
        <ele>101.342575</ele>
        <time>2014-06-22T06:38:10Z</time>
      </trkpt>
      <trkpt lat="43.91331" lon="4.01714">
        <ele>99.563927</ele>
        <time>2014-06-22T06:38:16Z</time>
      </trkpt>
      <trkpt lat="43.91318" lon="4.01752">
        <ele>97.668472</ele>
        <time>2014-06-22T06:38:21Z</time>
      </trkpt>
      <trkpt lat="43.9131" lon="4.01783">
        <ele>95.894341</ele>
        <time>2014-06-22T06:38:25Z</time>
      </trkpt>
      <trkpt lat="43.91302" lon="4.01807">
        <ele>94.557991</ele>
        <time>2014-06-22T06:38:28Z</time>
      </trkpt>
      <trkpt lat="43.91296" lon="4.01832">
        <ele>93.287376</ele>
        <time>2014-06-22T06:38:31Z</time>
      </trkpt>
      <trkpt lat="43.91284" lon="4.01868">
        <ele>91.549675</ele>
        <time>2014-06-22T06:38:35Z</time>
      </trkpt>
      <trkpt lat="43.9127" lon="4.01892">
        <ele>90.957924</ele>
        <time>2014-06-22T06:38:38Z</time>
      </trkpt>
      <trkpt lat="43.91256" lon="4.01914">
        <ele>89.862144</ele>
        <time>2014-06-22T06:38:41Z</time>
      </trkpt>
      <trkpt lat="43.91241" lon="4.01935">
        <ele>90.465874</ele>
        <time>2014-06-22T06:38:44Z</time>
      </trkpt>
      <trkpt lat="43.91232" lon="4.0195">
        <ele>91.071587</ele>
        <time>2014-06-22T06:38:46Z</time>
      </trkpt>
      <trkpt lat="43.91227" lon="4.01976">
        <ele>90.718719</ele>
        <time>2014-06-22T06:38:49Z</time>
      </trkpt>
      <trkpt lat="43.91224" lon="4.02014">
        <ele>88.954315</ele>
        <time>2014-06-22T06:38:53Z</time>
      </trkpt>
      <trkpt lat="43.91214" lon="4.0205">
        <ele>87.83213</ele>
        <time>2014-06-22T06:38:57Z</time>
      </trkpt>
      <trkpt lat="43.91187" lon="4.02079">
        <ele>87.41011</ele>
        <time>2014-06-22T06:39:02Z</time>
      </trkpt>
      <trkpt lat="43.91159" lon="4.02103">
        <ele>86.962502</ele>
        <time>2014-06-22T06:39:08Z</time>
      </trkpt>
      <trkpt lat="43.91134" lon="4.02119">
        <ele>87.727249</ele>
        <time>2014-06-22T06:39:13Z</time>
      </trkpt>
      <trkpt lat="43.91118" lon="4.02137">
        <ele>87.391342</ele>
        <time>2014-06-22T06:39:17Z</time>
      </trkpt>
      <trkpt lat="43.91106" lon="4.02175">
        <ele>84.30127</ele>
        <time>2014-06-22T06:39:22Z</time>
      </trkpt>
      <trkpt lat="43.91096" lon="4.02187">
        <ele>84.143509</ele>
        <time>2014-06-22T06:39:25Z</time>
      </trkpt>
      <trkpt lat="43.91086" lon="4.02189">
        <ele>84.705246</ele>
        <time>2014-06-22T06:39:28Z</time>
      </trkpt>
      <trkpt lat="43.91081" lon="4.02192">
        <ele>84.821587</ele>
        <time>2014-06-22T06:39:31Z</time>
      </trkpt>
      <trkpt lat="43.91085" lon="4.02189">
        <ele>84.766884</ele>
        <time>2014-06-22T06:39:36Z</time>
      </trkpt>
      <trkpt lat="43.91084" lon="4.02213">
        <ele>82.654045</ele>
        <time>2014-06-22T06:39:43Z</time>
      </trkpt>
      <trkpt lat="43.9106" lon="4.02232">
        <ele>82.620003</ele>
        <time>2014-06-22T06:39:48Z</time>
      </trkpt>
      <trkpt lat="43.91037" lon="4.02247">
        <ele>83.662498</ele>
        <time>2014-06-22T06:39:53Z</time>
      </trkpt>
      <trkpt lat="43.91004" lon="4.02261">
        <ele>84.575294</ele>
        <time>2014-06-22T06:40:00Z</time>
      </trkpt>
      <trkpt lat="43.90967" lon="4.02274">
        <ele>84.689919</ele>
        <time>2014-06-22T06:40:08Z</time>
      </trkpt>
      <trkpt lat="43.90898" lon="4.0231">
        <ele>82.379997</ele>
        <time>2014-06-22T06:40:20Z</time>
      </trkpt>
      <trkpt lat="43.9085" lon="4.0232">
        <ele>80.93</ele>
        <time>2014-06-22T06:40:27Z</time>
      </trkpt>
      <trkpt lat="43.90822" lon="4.02324">
        <ele>80.697502</ele>
        <time>2014-06-22T06:40:31Z</time>
      </trkpt>
      <trkpt lat="43.90789" lon="4.0233">
        <ele>80.266617</ele>
        <time>2014-06-22T06:40:36Z</time>
      </trkpt>
      <trkpt lat="43.90773" lon="4.02333">
        <ele>79.863556</ele>
        <time>2014-06-22T06:40:40Z</time>
      </trkpt>
      <trkpt lat="43.90757" lon="4.02333">
        <ele>79.543198</ele>
        <time>2014-06-22T06:41:18Z</time>
      </trkpt>
      <trkpt lat="43.90729" lon="4.02337">
        <ele>79.327133</ele>
        <time>2014-06-22T06:41:23Z</time>
      </trkpt>
      <trkpt lat="43.90691" lon="4.02344">
        <ele>78.910004</ele>
        <time>2014-06-22T06:41:29Z</time>
      </trkpt>
      <trkpt lat="43.90647" lon="4.02344">
        <ele>78.849998</ele>
        <time>2014-06-22T06:41:35Z</time>
      </trkpt>
      <trkpt lat="43.90591" lon="4.0234">
        <ele>77.655937</ele>
        <time>2014-06-22T06:41:43Z</time>
      </trkpt>
      <trkpt lat="43.90577" lon="4.0234">
        <ele>77.008949</ele>
        <time>2014-06-22T06:41:47Z</time>
      </trkpt>
      <trkpt lat="43.90573" lon="4.02351">
        <ele>76.472504</ele>
        <time>2014-06-22T06:41:53Z</time>
      </trkpt>
      <trkpt lat="43.9057" lon="4.02377">
        <ele>75.512497</ele>
        <time>2014-06-22T06:41:57Z</time>
      </trkpt>
      <trkpt lat="43.90565" lon="4.02417">
        <ele>74.115463</ele>
        <time>2014-06-22T06:42:01Z</time>
      </trkpt>
      <trkpt lat="43.90562" lon="4.02451">
        <ele>73.070137</ele>
        <time>2014-06-22T06:42:04Z</time>
      </trkpt>
      <trkpt lat="43.90554" lon="4.02504">
        <ele>71.205002</ele>
        <time>2014-06-22T06:42:09Z</time>
      </trkpt>
      <trkpt lat="43.90544" lon="4.02548">
        <ele>69.988747</ele>
        <time>2014-06-22T06:42:13Z</time>
      </trkpt>
      <trkpt lat="43.9054" lon="4.02593">
        <ele>69.261444</ele>
        <time>2014-06-22T06:42:17Z</time>
      </trkpt>
      <trkpt lat="43.90534" lon="4.02624">
        <ele>69.07267</ele>
        <time>2014-06-22T06:42:20Z</time>
      </trkpt>
      <trkpt lat="43.90524" lon="4.02685">
        <ele>69</ele>
        <time>2014-06-22T06:42:26Z</time>
      </trkpt>
      <trkpt lat="43.90518" lon="4.02723">
        <ele>69</ele>
        <time>2014-06-22T06:42:30Z</time>
      </trkpt>
      <trkpt lat="43.90514" lon="4.02762">
        <ele>69</ele>
        <time>2014-06-22T06:42:34Z</time>
      </trkpt>
      <trkpt lat="43.90509" lon="4.02832">
        <ele>67.349815</ele>
        <time>2014-06-22T06:42:41Z</time>
      </trkpt>
      <trkpt lat="43.90492" lon="4.02853">
        <ele>67.341248</ele>
        <time>2014-06-22T06:42:44Z</time>
      </trkpt>
      <trkpt lat="43.90478" lon="4.02857">
        <ele>67.59375</ele>
        <time>2014-06-22T06:42:46Z</time>
      </trkpt>
      <trkpt lat="43.90457" lon="4.02886">
        <ele>67.128754</ele>
        <time>2014-06-22T06:42:50Z</time>
      </trkpt>
      <trkpt lat="43.90446" lon="4.029">
        <ele>67</ele>
        <time>2014-06-22T06:42:52Z</time>
      </trkpt>
      <trkpt lat="43.90443" lon="4.02917">
        <ele>67</ele>
        <time>2014-06-22T06:42:56Z</time>
      </trkpt>
      <trkpt lat="43.90463" lon="4.02939">
        <ele>67</ele>
        <time>2014-06-22T06:43:01Z</time>
      </trkpt>
      <trkpt lat="43.90511" lon="4.02998">
        <ele>70.290291</ele>
        <time>2014-06-22T06:43:14Z</time>
      </trkpt>
      <trkpt lat="43.90525" lon="4.0301">
        <ele>71.634048</ele>
        <time>2014-06-22T06:43:19Z</time>
      </trkpt>
      <trkpt lat="43.90499" lon="4.03024">
        <ele>72.879684</ele>
        <time>2014-06-22T06:43:29Z</time>
      </trkpt>
      <trkpt lat="43.90483" lon="4.03032">
        <ele>73.711273</ele>
        <time>2014-06-22T06:43:35Z</time>
      </trkpt>
      <trkpt lat="43.90466" lon="4.03042">
        <ele>74.555199</ele>
        <time>2014-06-22T06:43:41Z</time>
      </trkpt>
      <trkpt lat="43.90447" lon="4.03049">
        <ele>74.082062</ele>
        <time>2014-06-22T06:43:47Z</time>
      </trkpt>
      <trkpt lat="43.9042" lon="4.03056">
        <ele>72.819199</ele>
        <time>2014-06-22T06:43:54Z</time>
      </trkpt>
      <trkpt lat="43.90376" lon="4.03068">
        <ele>71.934265</ele>
        <time>2014-06-22T06:44:07Z</time>
      </trkpt>
      <trkpt lat="43.90355" lon="4.03063">
        <ele>72.660187</ele>
        <time>2014-06-22T06:44:12Z</time>
      </trkpt>
      <trkpt lat="43.90329" lon="4.03062">
        <ele>72.858025</ele>
        <time>2014-06-22T06:44:17Z</time>
      </trkpt>
      <trkpt lat="43.90319" lon="4.03063">
        <ele>72.435249</ele>
        <time>2014-06-22T06:44:19Z</time>
      </trkpt>
      <trkpt lat="43.90279" lon="4.03067">
        <ele>70.821045</ele>
        <time>2014-06-22T06:44:28Z</time>
      </trkpt>
      <trkpt lat="43.90269" lon="4.03076">
        <ele>70.921875</ele>
        <time>2014-06-22T06:44:32Z</time>
      </trkpt>
      <trkpt lat="43.90264" lon="4.03103">
        <ele>72.256554</ele>
        <time>2014-06-22T06:44:38Z</time>
      </trkpt>
      <trkpt lat="43.90261" lon="4.03132">
        <ele>73.501396</ele>
        <time>2014-06-22T06:44:43Z</time>
      </trkpt>
      <trkpt lat="43.90256" lon="4.03162">
        <ele>73.47625</ele>
        <time>2014-06-22T06:44:49Z</time>
      </trkpt>
      <trkpt lat="43.90257" lon="4.03204">
        <ele>74.421005</ele>
        <time>2014-06-22T06:44:57Z</time>
      </trkpt>
      <trkpt lat="43.90248" lon="4.03221">
        <ele>73.509026</ele>
        <time>2014-06-22T06:45:01Z</time>
      </trkpt>
      <trkpt lat="43.90246" lon="4.03258">
        <ele>73.979004</ele>
        <time>2014-06-22T06:45:08Z</time>
      </trkpt>
      <trkpt lat="43.9024" lon="4.03304">
        <ele>75.929001</ele>
        <time>2014-06-22T06:45:17Z</time>
      </trkpt>
      <trkpt lat="43.90229" lon="4.03346">
        <ele>77.859001</ele>
        <time>2014-06-22T06:45:25Z</time>
      </trkpt>
      <trkpt lat="43.90218" lon="4.03376">
        <ele>77.72805</ele>
        <time>2014-06-22T06:45:31Z</time>
      </trkpt>
      <trkpt lat="43.90206" lon="4.03399">
        <ele>77.490524</ele>
        <time>2014-06-22T06:45:36Z</time>
      </trkpt>
      <trkpt lat="43.90188" lon="4.03423">
        <ele>79.049599</ele>
        <time>2014-06-22T06:45:42Z</time>
      </trkpt>
      <trkpt lat="43.9018" lon="4.03448">
        <ele>80</ele>
        <time>2014-06-22T06:45:47Z</time>
      </trkpt>
      <trkpt lat="43.90172" lon="4.0347">
        <ele>80</ele>
        <time>2014-06-22T06:45:52Z</time>
      </trkpt>
      <trkpt lat="43.90173" lon="4.0349">
        <ele>80</ele>
        <time>2014-06-22T06:45:57Z</time>
      </trkpt>
      <trkpt lat="43.90183" lon="4.03515">
        <ele>80.305328</ele>
        <time>2014-06-22T06:46:03Z</time>
      </trkpt>
      <trkpt lat="43.90207" lon="4.03536">
        <ele>81.062408</ele>
        <time>2014-06-22T06:46:13Z</time>
      </trkpt>
      <trkpt lat="43.90232" lon="4.03565">
        <ele>80.596298</ele>
        <time>2014-06-22T06:46:23Z</time>
      </trkpt>
      <trkpt lat="43.90259" lon="4.03598">
        <ele>83.430229</ele>
        <time>2014-06-22T06:46:34Z</time>
      </trkpt>
      <trkpt lat="43.90287" lon="4.03626">
        <ele>83.191628</ele>
        <time>2014-06-22T06:46:44Z</time>
      </trkpt>
      <trkpt lat="43.90317" lon="4.03655">
        <ele>84.952309</ele>
        <time>2014-06-22T06:46:55Z</time>
      </trkpt>
      <trkpt lat="43.90332" lon="4.03663">
        <ele>85.365562</ele>
        <time>2014-06-22T06:47:00Z</time>
      </trkpt>
      <trkpt lat="43.90348" lon="4.03673">
        <ele>86.257545</ele>
        <time>2014-06-22T06:47:05Z</time>
      </trkpt>
      <trkpt lat="43.90371" lon="4.03693">
        <ele>86.973</ele>
        <time>2014-06-22T06:47:14Z</time>
      </trkpt>
      <trkpt lat="43.90367" lon="4.03705">
        <ele>87.418747</ele>
        <time>2014-06-22T06:47:18Z</time>
      </trkpt>
      <trkpt lat="43.90358" lon="4.03721">
        <ele>88.762497</ele>
        <time>2014-06-22T06:47:24Z</time>
      </trkpt>
      <trkpt lat="43.90349" lon="4.03741">
        <ele>90.34375</ele>
        <time>2014-06-22T06:47:30Z</time>
      </trkpt>
      <trkpt lat="43.90334" lon="4.03753">
        <ele>91.349998</ele>
        <time>2014-06-22T06:47:36Z</time>
      </trkpt>
      <trkpt lat="43.90309" lon="4.03754">
        <ele>93.199455</ele>
        <time>2014-06-22T06:47:44Z</time>
      </trkpt>
      <trkpt lat="43.90293" lon="4.03749">
        <ele>94.079597</ele>
        <time>2014-06-22T06:47:49Z</time>
      </trkpt>
      <trkpt lat="43.90272" lon="4.03742">
        <ele>95.824188</ele>
        <time>2014-06-22T06:47:56Z</time>
      </trkpt>
      <trkpt lat="43.90259" lon="4.03727">
        <ele>95.934685</ele>
        <time>2014-06-22T06:48:02Z</time>
      </trkpt>
      <trkpt lat="43.90245" lon="4.03723">
        <ele>97.248352</ele>
        <time>2014-06-22T06:48:08Z</time>
      </trkpt>
      <trkpt lat="43.90234" lon="4.03729">
        <ele>99.08625</ele>
        <time>2014-06-22T06:48:14Z</time>
      </trkpt>
      <trkpt lat="43.90233" lon="4.03736">
        <ele>99.840004</ele>
        <time>2014-06-22T06:48:17Z</time>
      </trkpt>
      <trkpt lat="43.9023" lon="4.03741">
        <ele>100.657501</ele>
        <time>2014-06-22T06:48:21Z</time>
      </trkpt>
      <trkpt lat="43.90226" lon="4.03745">
        <ele>101.338753</ele>
        <time>2014-06-22T06:48:25Z</time>
      </trkpt>
      <trkpt lat="43.90223" lon="4.03752">
        <ele>102.417503</ele>
        <time>2014-06-22T06:48:29Z</time>
      </trkpt>
      <trkpt lat="43.90218" lon="4.03762">
        <ele>103.739326</ele>
        <time>2014-06-22T06:48:35Z</time>
      </trkpt>
      <trkpt lat="43.90214" lon="4.03766">
        <ele>104.431747</ele>
        <time>2014-06-22T06:48:39Z</time>
      </trkpt>
      <trkpt lat="43.90221" lon="4.0376">
        <ele>103.372147</ele>
        <time>2014-06-22T06:49:10Z</time>
      </trkpt>
      <trkpt lat="43.90213" lon="4.03786">
        <ele>106.324051</ele>
        <time>2014-06-22T06:49:53Z</time>
      </trkpt>
      <trkpt lat="43.90215" lon="4.03798">
        <ele>107.440422</ele>
        <time>2014-06-22T06:49:57Z</time>
      </trkpt>
      <trkpt lat="43.90214" lon="4.03806">
        <ele>108.209061</ele>
        <time>2014-06-22T06:50:01Z</time>
      </trkpt>
      <trkpt lat="43.90217" lon="4.0381">
        <ele>108.486214</ele>
        <time>2014-06-22T06:50:04Z</time>
      </trkpt>
      <trkpt lat="43.90227" lon="4.03818">
        <ele>109.079628</ele>
        <time>2014-06-22T06:50:10Z</time>
      </trkpt>
      <trkpt lat="43.90241" lon="4.03837">
        <ele>109.382317</ele>
        <time>2014-06-22T06:50:18Z</time>
      </trkpt>
      <trkpt lat="43.90255" lon="4.03877">
        <ele>110.458</ele>
        <time>2014-06-22T06:50:31Z</time>
      </trkpt>
      <trkpt lat="43.90257" lon="4.03895">
        <ele>110.869301</ele>
        <time>2014-06-22T06:50:36Z</time>
      </trkpt>
      <trkpt lat="43.90263" lon="4.03924">
        <ele>111.230255</ele>
        <time>2014-06-22T06:50:45Z</time>
      </trkpt>
      <trkpt lat="43.90262" lon="4.03954">
        <ele>112.309181</ele>
        <time>2014-06-22T06:50:53Z</time>
      </trkpt>
      <trkpt lat="43.9026" lon="4.03973">
        <ele>113.407593</ele>
        <time>2014-06-22T06:50:56Z</time>
      </trkpt>
      <trkpt lat="43.90255" lon="4.04">
        <ele>115.217323</ele>
        <time>2014-06-22T06:51:00Z</time>
      </trkpt>
      <trkpt lat="43.90243" lon="4.04016">
        <ele>117.365074</ele>
        <time>2014-06-22T06:51:05Z</time>
      </trkpt>
      <trkpt lat="43.90229" lon="4.0402">
        <ele>118.647499</ele>
        <time>2014-06-22T06:51:10Z</time>
      </trkpt>
      <trkpt lat="43.90209" lon="4.0402">
        <ele>119.414574</ele>
        <time>2014-06-22T06:51:16Z</time>
      </trkpt>
      <trkpt lat="43.90196" lon="4.04025">
        <ele>120.52121</ele>
        <time>2014-06-22T06:51:21Z</time>
      </trkpt>
      <trkpt lat="43.9019" lon="4.04042">
        <ele>123.226662</ele>
        <time>2014-06-22T06:51:30Z</time>
      </trkpt>
      <trkpt lat="43.90186" lon="4.0404">
        <ele>122.964401</ele>
        <time>2014-06-22T06:51:32Z</time>
      </trkpt>
      <trkpt lat="43.90165" lon="4.04034">
        <ele>121.74408</ele>
        <time>2014-06-22T06:51:39Z</time>
      </trkpt>
      <trkpt lat="43.9013" lon="4.04042">
        <ele>121.391876</ele>
        <time>2014-06-22T06:51:48Z</time>
      </trkpt>
      <trkpt lat="43.90107" lon="4.04059">
        <ele>121.204102</ele>
        <time>2014-06-22T06:51:54Z</time>
      </trkpt>
      <trkpt lat="43.90112" lon="4.04069">
        <ele>122.353287</ele>
        <time>2014-06-22T06:51:58Z</time>
      </trkpt>
      <trkpt lat="43.90122" lon="4.04079">
        <ele>123.894867</ele>
        <time>2014-06-22T06:52:05Z</time>
      </trkpt>
      <trkpt lat="43.90131" lon="4.04084">
        <ele>125.029678</ele>
        <time>2014-06-22T06:52:11Z</time>
      </trkpt>
      <trkpt lat="43.90144" lon="4.04088">
        <ele>126.43</ele>
        <time>2014-06-22T06:52:17Z</time>
      </trkpt>
      <trkpt lat="43.90155" lon="4.04081">
        <ele>126.449997</ele>
        <time>2014-06-22T06:52:23Z</time>
      </trkpt>
      <trkpt lat="43.90167" lon="4.04082">
        <ele>127.025002</ele>
        <time>2014-06-22T06:52:28Z</time>
      </trkpt>
      <trkpt lat="43.90181" lon="4.04079">
        <ele>127.425003</ele>
        <time>2014-06-22T06:52:33Z</time>
      </trkpt>
      <trkpt lat="43.90205" lon="4.04057">
        <ele>124.536064</ele>
        <time>2014-06-22T06:52:41Z</time>
      </trkpt>
      <trkpt lat="43.90218" lon="4.04043">
        <ele>121.927345</ele>
        <time>2014-06-22T06:52:45Z</time>
      </trkpt>
      <trkpt lat="43.90234" lon="4.04038">
        <ele>120.488693</ele>
        <time>2014-06-22T06:52:49Z</time>
      </trkpt>
      <trkpt lat="43.90248" lon="4.04036">
        <ele>119.010941</ele>
        <time>2014-06-22T06:52:52Z</time>
      </trkpt>
      <trkpt lat="43.90264" lon="4.04026">
        <ele>116.679535</ele>
        <time>2014-06-22T06:52:55Z</time>
      </trkpt>
      <trkpt lat="43.9027" lon="4.04019">
        <ele>115.583832</ele>
        <time>2014-06-22T06:52:57Z</time>
      </trkpt>
      <trkpt lat="43.90283" lon="4.04049">
        <ele>117.252319</ele>
        <time>2014-06-22T06:53:03Z</time>
      </trkpt>
      <trkpt lat="43.903" lon="4.04067">
        <ele>119.099358</ele>
        <time>2014-06-22T06:53:09Z</time>
      </trkpt>
      <trkpt lat="43.90306" lon="4.04074">
        <ele>119.904381</ele>
        <time>2014-06-22T06:53:12Z</time>
      </trkpt>
      <trkpt lat="43.90318" lon="4.04082">
        <ele>120.816086</ele>
        <time>2014-06-22T06:53:18Z</time>
      </trkpt>
      <trkpt lat="43.90328" lon="4.04074">
        <ele>120.215775</ele>
        <time>2014-06-22T06:53:23Z</time>
      </trkpt>
      <trkpt lat="43.90348" lon="4.04066">
        <ele>119.29834</ele>
        <time>2014-06-22T06:53:32Z</time>
      </trkpt>
      <trkpt lat="43.90354" lon="4.04048">
        <ele>117.416756</ele>
        <time>2014-06-22T06:53:37Z</time>
      </trkpt>
      <trkpt lat="43.90366" lon="4.04031">
        <ele>115.852127</ele>
        <time>2014-06-22T06:53:42Z</time>
      </trkpt>
      <trkpt lat="43.90377" lon="4.04014">
        <ele>114.097237</ele>
        <time>2014-06-22T06:53:46Z</time>
      </trkpt>
      <trkpt lat="43.90398" lon="4.03999">
        <ele>112.065201</ele>
        <time>2014-06-22T06:53:54Z</time>
      </trkpt>
      <trkpt lat="43.90416" lon="4.03992">
        <ele>110.608559</ele>
        <time>2014-06-22T06:53:58Z</time>
      </trkpt>
      <trkpt lat="43.90427" lon="4.03997">
        <ele>110.293427</ele>
        <time>2014-06-22T06:54:01Z</time>
      </trkpt>
      <trkpt lat="43.90451" lon="4.04006">
        <ele>109.078064</ele>
        <time>2014-06-22T06:54:06Z</time>
      </trkpt>
      <trkpt lat="43.90488" lon="4.04049">
        <ele>106.48156</ele>
        <time>2014-06-22T06:54:15Z</time>
      </trkpt>
      <trkpt lat="43.90513" lon="4.04104">
        <ele>104.721252</ele>
        <time>2014-06-22T06:54:23Z</time>
      </trkpt>
      <trkpt lat="43.90519" lon="4.04127">
        <ele>104.684998</ele>
        <time>2014-06-22T06:54:27Z</time>
      </trkpt>
      <trkpt lat="43.90527" lon="4.04142">
        <ele>104.387482</ele>
        <time>2014-06-22T06:54:31Z</time>
      </trkpt>
      <trkpt lat="43.90532" lon="4.04158">
        <ele>104.48941</ele>
        <time>2014-06-22T06:54:34Z</time>
      </trkpt>
      <trkpt lat="43.90523" lon="4.04177">
        <ele>105.454956</ele>
        <time>2014-06-22T06:54:38Z</time>
      </trkpt>
      <trkpt lat="43.90498" lon="4.0421">
        <ele>107.533356</ele>
        <time>2014-06-22T06:54:49Z</time>
      </trkpt>
      <trkpt lat="43.90486" lon="4.04262">
        <ele>109.903458</ele>
        <time>2014-06-22T06:55:02Z</time>
      </trkpt>
      <trkpt lat="43.90483" lon="4.04291">
        <ele>111.942497</ele>
        <time>2014-06-22T06:55:10Z</time>
      </trkpt>
      <trkpt lat="43.9048" lon="4.04319">
        <ele>113.912498</ele>
        <time>2014-06-22T06:55:17Z</time>
      </trkpt>
      <trkpt lat="43.90477" lon="4.04334">
        <ele>114.206078</ele>
        <time>2014-06-22T06:55:23Z</time>
      </trkpt>
      <trkpt lat="43.90458" lon="4.04339">
        <ele>115.628075</ele>
        <time>2014-06-22T06:55:31Z</time>
      </trkpt>
      <trkpt lat="43.90446" lon="4.04337">
        <ele>116.75</ele>
        <time>2014-06-22T06:55:35Z</time>
      </trkpt>
      <trkpt lat="43.90425" lon="4.04345">
        <ele>118.610001</ele>
        <time>2014-06-22T06:55:42Z</time>
      </trkpt>
      <trkpt lat="43.90391" lon="4.04354">
        <ele>120.578827</ele>
        <time>2014-06-22T06:55:55Z</time>
      </trkpt>
      <trkpt lat="43.90383" lon="4.04342">
        <ele>120.956886</ele>
        <time>2014-06-22T06:55:59Z</time>
      </trkpt>
      <trkpt lat="43.90362" lon="4.04309">
        <ele>122.213127</ele>
        <time>2014-06-22T06:56:08Z</time>
      </trkpt>
      <trkpt lat="43.90333" lon="4.04296">
        <ele>122.955902</ele>
        <time>2014-06-22T06:56:17Z</time>
      </trkpt>
      <trkpt lat="43.90294" lon="4.0426">
        <ele>124.204811</ele>
        <time>2014-06-22T06:56:28Z</time>
      </trkpt>
      <trkpt lat="43.90266" lon="4.04234">
        <ele>125.046722</ele>
        <time>2014-06-22T06:56:36Z</time>
      </trkpt>
      <trkpt lat="43.90256" lon="4.0423">
        <ele>124.888298</ele>
        <time>2014-06-22T06:56:39Z</time>
      </trkpt>
      <trkpt lat="43.90231" lon="4.0423">
        <ele>123.900719</ele>
        <time>2014-06-22T06:56:45Z</time>
      </trkpt>
      <trkpt lat="43.90194" lon="4.0423">
        <ele>122.735703</ele>
        <time>2014-06-22T06:56:54Z</time>
      </trkpt>
      <trkpt lat="43.90173" lon="4.0423">
        <ele>122.49894</ele>
        <time>2014-06-22T06:57:00Z</time>
      </trkpt>
      <trkpt lat="43.90152" lon="4.0423">
        <ele>122.571259</ele>
        <time>2014-06-22T06:57:06Z</time>
      </trkpt>
      <trkpt lat="43.90134" lon="4.04233">
        <ele>122.052711</ele>
        <time>2014-06-22T06:57:11Z</time>
      </trkpt>
      <trkpt lat="43.90108" lon="4.04233">
        <ele>121.438499</ele>
        <time>2014-06-22T06:57:17Z</time>
      </trkpt>
      <trkpt lat="43.90089" lon="4.04235">
        <ele>120.782173</ele>
        <time>2014-06-22T06:57:21Z</time>
      </trkpt>
      <trkpt lat="43.90071" lon="4.04235">
        <ele>120.145828</ele>
        <time>2014-06-22T06:57:25Z</time>
      </trkpt>
      <trkpt lat="43.90049" lon="4.04235">
        <ele>119.334961</ele>
        <time>2014-06-22T06:57:30Z</time>
      </trkpt>
      <trkpt lat="43.90022" lon="4.04237">
        <ele>117.346375</ele>
        <time>2014-06-22T06:57:35Z</time>
      </trkpt>
      <trkpt lat="43.89993" lon="4.04237">
        <ele>114.967796</ele>
        <time>2014-06-22T06:57:39Z</time>
      </trkpt>
      <trkpt lat="43.89979" lon="4.04236">
        <ele>113.624107</ele>
        <time>2014-06-22T06:57:41Z</time>
      </trkpt>
      <trkpt lat="43.89962" lon="4.04246">
        <ele>112.090622</ele>
        <time>2014-06-22T06:57:46Z</time>
      </trkpt>
      <trkpt lat="43.89967" lon="4.04263">
        <ele>111.572876</ele>
        <time>2014-06-22T06:57:51Z</time>
      </trkpt>
      <trkpt lat="43.8998" lon="4.04284">
        <ele>111.140396</ele>
        <time>2014-06-22T06:57:57Z</time>
      </trkpt>
      <trkpt lat="43.9" lon="4.0431">
        <ele>110.653603</ele>
        <time>2014-06-22T06:58:04Z</time>
      </trkpt>
      <trkpt lat="43.90018" lon="4.04332">
        <ele>108.224998</ele>
        <time>2014-06-22T06:58:09Z</time>
      </trkpt>
      <trkpt lat="43.90042" lon="4.04355">
        <ele>105.699997</ele>
        <time>2014-06-22T06:58:14Z</time>
      </trkpt>
      <trkpt lat="43.9007" lon="4.04371">
        <ele>103.117653</ele>
        <time>2014-06-22T06:58:18Z</time>
      </trkpt>
      <trkpt lat="43.90087" lon="4.04377">
        <ele>102.104202</ele>
        <time>2014-06-22T06:58:20Z</time>
      </trkpt>
      <trkpt lat="43.90113" lon="4.04381">
        <ele>101.905342</ele>
        <time>2014-06-22T06:58:23Z</time>
      </trkpt>
      <trkpt lat="43.90138" lon="4.04383">
        <ele>101.995377</ele>
        <time>2014-06-22T06:58:26Z</time>
      </trkpt>
      <trkpt lat="43.90158" lon="4.04388">
        <ele>102.885002</ele>
        <time>2014-06-22T06:58:29Z</time>
      </trkpt>
      <trkpt lat="43.90182" lon="4.04401">
        <ele>103.949997</ele>
        <time>2014-06-22T06:58:33Z</time>
      </trkpt>
      <trkpt lat="43.90206" lon="4.04423">
        <ele>105.189499</ele>
        <time>2014-06-22T06:58:38Z</time>
      </trkpt>
      <trkpt lat="43.90254" lon="4.04461">
        <ele>108.032997</ele>
        <time>2014-06-22T06:58:49Z</time>
      </trkpt>
      <trkpt lat="43.90284" lon="4.04483">
        <ele>109.28196</ele>
        <time>2014-06-22T06:58:57Z</time>
      </trkpt>
      <trkpt lat="43.903" lon="4.045">
        <ele>109.185158</ele>
        <time>2014-06-22T06:59:03Z</time>
      </trkpt>
      <trkpt lat="43.9031" lon="4.04508">
        <ele>109.004684</ele>
        <time>2014-06-22T06:59:08Z</time>
      </trkpt>
      <trkpt lat="43.90328" lon="4.04499">
        <ele>109.28965</ele>
        <time>2014-06-22T06:59:16Z</time>
      </trkpt>
      <trkpt lat="43.90345" lon="4.04489">
        <ele>109.985451</ele>
        <time>2014-06-22T06:59:23Z</time>
      </trkpt>
      <trkpt lat="43.90363" lon="4.04475">
        <ele>111.651253</ele>
        <time>2014-06-22T06:59:31Z</time>
      </trkpt>
      <trkpt lat="43.90377" lon="4.04459">
        <ele>112.546249</ele>
        <time>2014-06-22T06:59:38Z</time>
      </trkpt>
      <trkpt lat="43.90386" lon="4.04447">
        <ele>113.3125</ele>
        <time>2014-06-22T06:59:43Z</time>
      </trkpt>
      <trkpt lat="43.904" lon="4.04429">
        <ele>114.686127</ele>
        <time>2014-06-22T06:59:50Z</time>
      </trkpt>
      <trkpt lat="43.90415" lon="4.04416">
        <ele>115.354515</ele>
        <time>2014-06-22T06:59:57Z</time>
      </trkpt>
      <trkpt lat="43.90429" lon="4.04405">
        <ele>115.579895</ele>
        <time>2014-06-22T07:00:03Z</time>
      </trkpt>
      <trkpt lat="43.90446" lon="4.04391">
        <ele>115.90049</ele>
        <time>2014-06-22T07:00:08Z</time>
      </trkpt>
      <trkpt lat="43.90453" lon="4.04383">
        <ele>116.010002</ele>
        <time>2014-06-22T07:00:10Z</time>
      </trkpt>
      <trkpt lat="43.90469" lon="4.04365">
        <ele>114.110001</ele>
        <time>2014-06-22T07:00:14Z</time>
      </trkpt>
      <trkpt lat="43.90478" lon="4.04346">
        <ele>113.618347</ele>
        <time>2014-06-22T07:00:17Z</time>
      </trkpt>
      <trkpt lat="43.90497" lon="4.04333">
        <ele>112.652725</ele>
        <time>2014-06-22T07:00:21Z</time>
      </trkpt>
      <trkpt lat="43.90525" lon="4.04327">
        <ele>110.698753</ele>
        <time>2014-06-22T07:00:26Z</time>
      </trkpt>
      <trkpt lat="43.90561" lon="4.0432">
        <ele>106.748154</ele>
        <time>2014-06-22T07:00:32Z</time>
      </trkpt>
      <trkpt lat="43.9058" lon="4.04308">
        <ele>104.495697</ele>
        <time>2014-06-22T07:00:35Z</time>
      </trkpt>
      <trkpt lat="43.90606" lon="4.04292">
        <ele>102.952713</ele>
        <time>2014-06-22T07:00:39Z</time>
      </trkpt>
      <trkpt lat="43.9063" lon="4.04273">
        <ele>102.858772</ele>
        <time>2014-06-22T07:00:43Z</time>
      </trkpt>
      <trkpt lat="43.90647" lon="4.04248">
        <ele>104.060364</ele>
        <time>2014-06-22T07:00:47Z</time>
      </trkpt>
      <trkpt lat="43.90659" lon="4.04233">
        <ele>105.204224</ele>
        <time>2014-06-22T07:00:50Z</time>
      </trkpt>
      <trkpt lat="43.90668" lon="4.0423">
        <ele>105.892502</ele>
        <time>2014-06-22T07:00:53Z</time>
      </trkpt>
      <trkpt lat="43.90681" lon="4.04237">
        <ele>106.11898</ele>
        <time>2014-06-22T07:00:57Z</time>
      </trkpt>
      <trkpt lat="43.90693" lon="4.0425">
        <ele>106.126442</ele>
        <time>2014-06-22T07:01:01Z</time>
      </trkpt>
      <trkpt lat="43.90703" lon="4.04253">
        <ele>106.667473</ele>
        <time>2014-06-22T07:01:04Z</time>
      </trkpt>
      <trkpt lat="43.90722" lon="4.04267">
        <ele>107.052032</ele>
        <time>2014-06-22T07:01:09Z</time>
      </trkpt>
      <trkpt lat="43.90755" lon="4.04281">
        <ele>108.404846</ele>
        <time>2014-06-22T07:01:17Z</time>
      </trkpt>
      <trkpt lat="43.90782" lon="4.04298">
        <ele>108.602097</ele>
        <time>2014-06-22T07:01:24Z</time>
      </trkpt>
      <trkpt lat="43.90808" lon="4.04317">
        <ele>107.461418</ele>
        <time>2014-06-22T07:01:31Z</time>
      </trkpt>
      <trkpt lat="43.90826" lon="4.04328">
        <ele>106.056877</ele>
        <time>2014-06-22T07:01:35Z</time>
      </trkpt>
      <trkpt lat="43.90845" lon="4.04333">
        <ele>104.893227</ele>
        <time>2014-06-22T07:01:39Z</time>
      </trkpt>
      <trkpt lat="43.90873" lon="4.04323">
        <ele>105.915001</ele>
        <time>2014-06-22T07:01:48Z</time>
      </trkpt>
      <trkpt lat="43.90893" lon="4.04314">
        <ele>106.624748</ele>
        <time>2014-06-22T07:01:54Z</time>
      </trkpt>
      <trkpt lat="43.90925" lon="4.04296">
        <ele>107.42469</ele>
        <time>2014-06-22T07:02:04Z</time>
      </trkpt>
      <trkpt lat="43.90954" lon="4.04279">
        <ele>108.289825</ele>
        <time>2014-06-22T07:02:14Z</time>
      </trkpt>
      <trkpt lat="43.90984" lon="4.04268">
        <ele>108.894997</ele>
        <time>2014-06-22T07:02:24Z</time>
      </trkpt>
      <trkpt lat="43.91023" lon="4.04255">
        <ele>108.245552</ele>
        <time>2014-06-22T07:02:35Z</time>
      </trkpt>
      <trkpt lat="43.91037" lon="4.04246">
        <ele>108.722153</ele>
        <time>2014-06-22T07:02:41Z</time>
      </trkpt>
      <trkpt lat="43.9105" lon="4.04233">
        <ele>109.362198</ele>
        <time>2014-06-22T07:02:50Z</time>
      </trkpt>
      <trkpt lat="43.91055" lon="4.04226">
        <ele>110.113518</ele>
        <time>2014-06-22T07:02:54Z</time>
      </trkpt>
      <trkpt lat="43.91083" lon="4.04191">
        <ele>113.016029</ele>
        <time>2014-06-22T07:03:29Z</time>
      </trkpt>
      <trkpt lat="43.91099" lon="4.04164">
        <ele>114.165497</ele>
        <time>2014-06-22T07:03:37Z</time>
      </trkpt>
      <trkpt lat="43.91105" lon="4.04148">
        <ele>116.160545</ele>
        <time>2014-06-22T07:03:41Z</time>
      </trkpt>
      <trkpt lat="43.91107" lon="4.04139">
        <ele>117.260155</ele>
        <time>2014-06-22T07:03:44Z</time>
      </trkpt>
      <trkpt lat="43.91117" lon="4.04117">
        <ele>118.241798</ele>
        <time>2014-06-22T07:03:49Z</time>
      </trkpt>
      <trkpt lat="43.91129" lon="4.04098">
        <ele>116.103981</ele>
        <time>2014-06-22T07:03:54Z</time>
      </trkpt>
      <trkpt lat="43.91143" lon="4.04073">
        <ele>111.449997</ele>
        <time>2014-06-22T07:04:00Z</time>
      </trkpt>
      <trkpt lat="43.91152" lon="4.04045">
        <ele>108.864998</ele>
        <time>2014-06-22T07:04:06Z</time>
      </trkpt>
      <trkpt lat="43.91154" lon="4.04031">
        <ele>109.094704</ele>
        <time>2014-06-22T07:04:11Z</time>
      </trkpt>
      <trkpt lat="43.91159" lon="4.04013">
        <ele>105.813499</ele>
        <time>2014-06-22T07:04:16Z</time>
      </trkpt>
      <trkpt lat="43.91163" lon="4.04004">
        <ele>103.303581</ele>
        <time>2014-06-22T07:04:18Z</time>
      </trkpt>
      <trkpt lat="43.91174" lon="4.03987">
        <ele>97.435814</ele>
        <time>2014-06-22T07:04:23Z</time>
      </trkpt>
      <trkpt lat="43.91184" lon="4.03979">
        <ele>93.489754</ele>
        <time>2014-06-22T07:04:27Z</time>
      </trkpt>
      <trkpt lat="43.91188" lon="4.03975">
        <ele>91.880234</ele>
        <time>2014-06-22T07:04:29Z</time>
      </trkpt>
      <trkpt lat="43.91198" lon="4.03953">
        <ele>88.34285</ele>
        <time>2014-06-22T07:04:35Z</time>
      </trkpt>
      <trkpt lat="43.91191" lon="4.03936">
        <ele>90.016014</ele>
        <time>2014-06-22T07:04:40Z</time>
      </trkpt>
      <trkpt lat="43.9119" lon="4.03927">
        <ele>90.070999</ele>
        <time>2014-06-22T07:04:42Z</time>
      </trkpt>
      <trkpt lat="43.91189" lon="4.039">
        <ele>89.050407</ele>
        <time>2014-06-22T07:04:47Z</time>
      </trkpt>
      <trkpt lat="43.91184" lon="4.03873">
        <ele>88.381409</ele>
        <time>2014-06-22T07:04:52Z</time>
      </trkpt>
      <trkpt lat="43.91177" lon="4.03848">
        <ele>87.874199</ele>
        <time>2014-06-22T07:04:57Z</time>
      </trkpt>
      <trkpt lat="43.91176" lon="4.03831">
        <ele>87.249939</ele>
        <time>2014-06-22T07:05:01Z</time>
      </trkpt>
      <trkpt lat="43.91166" lon="4.03782">
        <ele>86.312691</ele>
        <time>2014-06-22T07:05:11Z</time>
      </trkpt>
      <trkpt lat="43.91142" lon="4.03765">
        <ele>88.514915</ele>
        <time>2014-06-22T07:05:19Z</time>
      </trkpt>
      <trkpt lat="43.91129" lon="4.03758">
        <ele>89.555679</ele>
        <time>2014-06-22T07:05:23Z</time>
      </trkpt>
      <trkpt lat="43.91104" lon="4.03737">
        <ele>90.409302</ele>
        <time>2014-06-22T07:05:32Z</time>
      </trkpt>
      <trkpt lat="43.91097" lon="4.0374">
        <ele>91.588997</ele>
        <time>2014-06-22T07:05:36Z</time>
      </trkpt>
      <trkpt lat="43.91085" lon="4.03755">
        <ele>94.505562</ele>
        <time>2014-06-22T07:05:44Z</time>
      </trkpt>
      <trkpt lat="43.91069" lon="4.03749">
        <ele>95.192314</ele>
        <time>2014-06-22T07:05:50Z</time>
      </trkpt>
      <trkpt lat="43.91062" lon="4.03744">
        <ele>95.085388</ele>
        <time>2014-06-22T07:05:52Z</time>
      </trkpt>
      <trkpt lat="43.91046" lon="4.03727">
        <ele>93.427216</ele>
        <time>2014-06-22T07:05:58Z</time>
      </trkpt>
      <trkpt lat="43.91028" lon="4.03721">
        <ele>94.545853</ele>
        <time>2014-06-22T07:06:06Z</time>
      </trkpt>
      <trkpt lat="43.91007" lon="4.03706">
        <ele>95.056679</ele>
        <time>2014-06-22T07:06:14Z</time>
      </trkpt>
      <trkpt lat="43.91" lon="4.03691">
        <ele>94.385124</ele>
        <time>2014-06-22T07:06:18Z</time>
      </trkpt>
      <trkpt lat="43.90996" lon="4.03681">
        <ele>93.999832</ele>
        <time>2014-06-22T07:06:21Z</time>
      </trkpt>
      <trkpt lat="43.90985" lon="4.03674">
        <ele>95.517647</ele>
        <time>2014-06-22T07:06:25Z</time>
      </trkpt>
      <trkpt lat="43.90976" lon="4.03663">
        <ele>95.80735</ele>
        <time>2014-06-22T07:06:30Z</time>
      </trkpt>
      <trkpt lat="43.90966" lon="4.0364">
        <ele>96.137505</ele>
        <time>2014-06-22T07:06:42Z</time>
      </trkpt>
      <trkpt lat="43.90959" lon="4.03626">
        <ele>97.335663</ele>
        <time>2014-06-22T07:06:49Z</time>
      </trkpt>
      <trkpt lat="43.90953" lon="4.03619">
        <ele>98.378899</ele>
        <time>2014-06-22T07:06:54Z</time>
      </trkpt>
      <trkpt lat="43.90946" lon="4.03614">
        <ele>99.5187</ele>
        <time>2014-06-22T07:06:58Z</time>
      </trkpt>
      <trkpt lat="43.90936" lon="4.03607">
        <ele>101.343697</ele>
        <time>2014-06-22T07:07:05Z</time>
      </trkpt>
      <trkpt lat="43.90926" lon="4.03589">
        <ele>101.914612</ele>
        <time>2014-06-22T07:07:12Z</time>
      </trkpt>
      <trkpt lat="43.90916" lon="4.03561">
        <ele>101.946266</ele>
        <time>2014-06-22T07:07:20Z</time>
      </trkpt>
      <trkpt lat="43.90903" lon="4.03565">
        <ele>104.453247</ele>
        <time>2014-06-22T07:12:33Z</time>
      </trkpt>
      <trkpt lat="43.90902" lon="4.03581">
        <ele>105.407959</ele>
        <time>2014-06-22T07:12:40Z</time>
      </trkpt>
      <trkpt lat="43.90897" lon="4.03602">
        <ele>107.611794</ele>
        <time>2014-06-22T07:12:54Z</time>
      </trkpt>
      <trkpt lat="43.9089" lon="4.03614">
        <ele>109.558609</ele>
        <time>2014-06-22T07:13:02Z</time>
      </trkpt>
      <trkpt lat="43.90886" lon="4.03635">
        <ele>111.381897</ele>
        <time>2014-06-22T07:13:15Z</time>
      </trkpt>
      <trkpt lat="43.90882" lon="4.03643">
        <ele>112.307129</ele>
        <time>2014-06-22T07:13:20Z</time>
      </trkpt>
      <trkpt lat="43.9088" lon="4.03645">
        <ele>112.618752</ele>
        <time>2014-06-22T07:13:22Z</time>
      </trkpt>
      <trkpt lat="43.90876" lon="4.03653">
        <ele>113.449997</ele>
        <time>2014-06-22T07:13:28Z</time>
      </trkpt>
      <trkpt lat="43.90876" lon="4.0366">
        <ele>114.505028</ele>
        <time>2014-06-22T07:13:30Z</time>
      </trkpt>
      <trkpt lat="43.90874" lon="4.03674">
        <ele>116.706322</ele>
        <time>2014-06-22T07:13:34Z</time>
      </trkpt>
      <trkpt lat="43.90863" lon="4.03684">
        <ele>118.266861</ele>
        <time>2014-06-22T07:13:38Z</time>
      </trkpt>
      <trkpt lat="43.90833" lon="4.03706">
        <ele>119.718903</ele>
        <time>2014-06-22T07:13:49Z</time>
      </trkpt>
      <trkpt lat="43.90817" lon="4.03715">
        <ele>119.884201</ele>
        <time>2014-06-22T07:13:56Z</time>
      </trkpt>
      <trkpt lat="43.90806" lon="4.03719">
        <ele>119.949898</ele>
        <time>2014-06-22T07:14:00Z</time>
      </trkpt>
      <trkpt lat="43.90771" lon="4.03733">
        <ele>120.53244</ele>
        <time>2014-06-22T07:14:10Z</time>
      </trkpt>
      <trkpt lat="43.90751" lon="4.03736">
        <ele>120.533012</ele>
        <time>2014-06-22T07:14:15Z</time>
      </trkpt>
      <trkpt lat="43.90717" lon="4.03733">
        <ele>119.035851</ele>
        <time>2014-06-22T07:14:23Z</time>
      </trkpt>
      <trkpt lat="43.90679" lon="4.03721">
        <ele>115.906532</ele>
        <time>2014-06-22T07:14:31Z</time>
      </trkpt>
      <trkpt lat="43.90664" lon="4.03711">
        <ele>114.091408</ele>
        <time>2014-06-22T07:14:35Z</time>
      </trkpt>
      <trkpt lat="43.90649" lon="4.03702">
        <ele>112.562424</ele>
        <time>2014-06-22T07:14:38Z</time>
      </trkpt>
      <trkpt lat="43.90635" lon="4.03694">
        <ele>110.707474</ele>
        <time>2014-06-22T07:14:41Z</time>
      </trkpt>
      <trkpt lat="43.90611" lon="4.03683">
        <ele>107.407249</ele>
        <time>2014-06-22T07:14:46Z</time>
      </trkpt>
      <trkpt lat="43.90599" lon="4.0368">
        <ele>106.150703</ele>
        <time>2014-06-22T07:14:49Z</time>
      </trkpt>
      <trkpt lat="43.90586" lon="4.03681">
        <ele>105.394844</ele>
        <time>2014-06-22T07:14:54Z</time>
      </trkpt>
      <trkpt lat="43.90566" lon="4.03671">
        <ele>104.174034</ele>
        <time>2014-06-22T07:15:00Z</time>
      </trkpt>
      <trkpt lat="43.90549" lon="4.03653">
        <ele>103.519409</ele>
        <time>2014-06-22T07:15:04Z</time>
      </trkpt>
      <trkpt lat="43.90526" lon="4.03638">
        <ele>102.522804</ele>
        <time>2014-06-22T07:15:08Z</time>
      </trkpt>
      <trkpt lat="43.90519" lon="4.03623">
        <ele>101.673004</ele>
        <time>2014-06-22T07:15:11Z</time>
      </trkpt>
      <trkpt lat="43.90514" lon="4.0361">
        <ele>101.040329</ele>
        <time>2014-06-22T07:15:13Z</time>
      </trkpt>
      <trkpt lat="43.90504" lon="4.03588">
        <ele>99.951538</ele>
        <time>2014-06-22T07:15:16Z</time>
      </trkpt>
      <trkpt lat="43.90491" lon="4.03559">
        <ele>97.634102</ele>
        <time>2014-06-22T07:15:20Z</time>
      </trkpt>
      <trkpt lat="43.90478" lon="4.03527">
        <ele>95.401703</ele>
        <time>2014-06-22T07:15:24Z</time>
      </trkpt>
      <trkpt lat="43.90474" lon="4.03511">
        <ele>94.465858</ele>
        <time>2014-06-22T07:15:26Z</time>
      </trkpt>
      <trkpt lat="43.90459" lon="4.03473">
        <ele>92.533997</ele>
        <time>2014-06-22T07:15:31Z</time>
      </trkpt>
      <trkpt lat="43.90456" lon="4.03457">
        <ele>91.711784</ele>
        <time>2014-06-22T07:15:33Z</time>
      </trkpt>
      <trkpt lat="43.90442" lon="4.03428">
        <ele>89.944572</ele>
        <time>2014-06-22T07:15:37Z</time>
      </trkpt>
      <trkpt lat="43.9043" lon="4.03402">
        <ele>88.478867</ele>
        <time>2014-06-22T07:15:42Z</time>
      </trkpt>
      <trkpt lat="43.90425" lon="4.03386">
        <ele>87.585602</ele>
        <time>2014-06-22T07:15:44Z</time>
      </trkpt>
      <trkpt lat="43.90417" lon="4.03348">
        <ele>84.708641</ele>
        <time>2014-06-22T07:15:48Z</time>
      </trkpt>
      <trkpt lat="43.90415" lon="4.0331">
        <ele>82.433151</ele>
        <time>2014-06-22T07:15:52Z</time>
      </trkpt>
      <trkpt lat="43.90411" lon="4.03263">
        <ele>80.582504</ele>
        <time>2014-06-22T07:15:57Z</time>
      </trkpt>
      <trkpt lat="43.90411" lon="4.03236">
        <ele>79.732498</ele>
        <time>2014-06-22T07:16:00Z</time>
      </trkpt>
      <trkpt lat="43.90414" lon="4.0321">
        <ele>78.792503</ele>
        <time>2014-06-22T07:16:03Z</time>
      </trkpt>
      <trkpt lat="43.90416" lon="4.03175">
        <ele>79.081253</ele>
        <time>2014-06-22T07:16:07Z</time>
      </trkpt>
      <trkpt lat="43.9042" lon="4.03149">
        <ele>79.661674</ele>
        <time>2014-06-22T07:16:10Z</time>
      </trkpt>
      <trkpt lat="43.90413" lon="4.0313">
        <ele>78.72892</ele>
        <time>2014-06-22T07:16:13Z</time>
      </trkpt>
      <trkpt lat="43.90407" lon="4.03113">
        <ele>77.120735</ele>
        <time>2014-06-22T07:16:15Z</time>
      </trkpt>
      <trkpt lat="43.904" lon="4.03081">
        <ele>73.627373</ele>
        <time>2014-06-22T07:16:19Z</time>
      </trkpt>
      <trkpt lat="43.90406" lon="4.03062">
        <ele>72.5774</ele>
        <time>2014-06-22T07:16:23Z</time>
      </trkpt>
      <trkpt lat="43.9043" lon="4.03056">
        <ele>73.329659</ele>
        <time>2014-06-22T07:16:28Z</time>
      </trkpt>
      <trkpt lat="43.90448" lon="4.03052">
        <ele>74.656387</ele>
        <time>2014-06-22T07:16:32Z</time>
      </trkpt>
      <trkpt lat="43.90496" lon="4.03029">
        <ele>73.832527</ele>
        <time>2014-06-22T07:16:42Z</time>
      </trkpt>
      <trkpt lat="43.90522" lon="4.03014">
        <ele>72.159248</ele>
        <time>2014-06-22T07:16:47Z</time>
      </trkpt>
      <trkpt lat="43.90524" lon="4.03004">
        <ele>71.003387</ele>
        <time>2014-06-22T07:16:51Z</time>
      </trkpt>
      <trkpt lat="43.90516" lon="4.02998">
        <ele>70.396378</ele>
        <time>2014-06-22T07:16:54Z</time>
      </trkpt>
      <trkpt lat="43.90501" lon="4.02983">
        <ele>68.763962</ele>
        <time>2014-06-22T07:17:00Z</time>
      </trkpt>
      <trkpt lat="43.90483" lon="4.02961">
        <ele>67.136803</ele>
        <time>2014-06-22T07:17:07Z</time>
      </trkpt>
      <trkpt lat="43.90443" lon="4.02905">
        <ele>67</ele>
        <time>2014-06-22T07:17:26Z</time>
      </trkpt>
      <trkpt lat="43.90472" lon="4.02863">
        <ele>67.510002</ele>
        <time>2014-06-22T07:17:43Z</time>
      </trkpt>
      <trkpt lat="43.90508" lon="4.02839">
        <ele>67.224998</ele>
        <time>2014-06-22T07:17:57Z</time>
      </trkpt>
      <trkpt lat="43.90513" lon="4.02798">
        <ele>68.2379</ele>
        <time>2014-06-22T07:18:09Z</time>
      </trkpt>
      <trkpt lat="43.90523" lon="4.02694">
        <ele>69</ele>
        <time>2014-06-22T07:18:34Z</time>
      </trkpt>
      <trkpt lat="43.90547" lon="4.02534">
        <ele>70.277496</ele>
        <time>2014-06-22T07:19:04Z</time>
      </trkpt>
      <trkpt lat="43.90567" lon="4.02427">
        <ele>73.896652</ele>
        <time>2014-06-22T07:19:24Z</time>
      </trkpt>
      <trkpt lat="43.90571" lon="4.02372">
        <ele>75.747498</ele>
        <time>2014-06-22T07:19:35Z</time>
      </trkpt>
      <trkpt lat="43.90576" lon="4.02339">
        <ele>76.979797</ele>
        <time>2014-06-22T07:19:44Z</time>
      </trkpt>
      <trkpt lat="43.90536" lon="4.02328">
        <ele>75.57151</ele>
        <time>2014-06-22T07:20:04Z</time>
      </trkpt>
      <trkpt lat="43.90457" lon="4.0232">
        <ele>74.941673</ele>
        <time>2014-06-22T07:20:29Z</time>
      </trkpt>
      <trkpt lat="43.90414" lon="4.02352">
        <ele>75.452065</ele>
        <time>2014-06-22T07:20:39Z</time>
      </trkpt>
      <trkpt lat="43.90367" lon="4.02359">
        <ele>76.119896</ele>
        <time>2014-06-22T07:20:50Z</time>
      </trkpt>
      <trkpt lat="43.90288" lon="4.02387">
        <ele>76.818748</ele>
        <time>2014-06-22T07:21:08Z</time>
      </trkpt>
      <trkpt lat="43.90257" lon="4.02398">
        <ele>77.353752</ele>
        <time>2014-06-22T07:21:15Z</time>
      </trkpt>
      <trkpt lat="43.90184" lon="4.02423">
        <ele>78.792282</ele>
        <time>2014-06-22T07:21:34Z</time>
      </trkpt>
      <trkpt lat="43.90157" lon="4.02436">
        <ele>78.360001</ele>
        <time>2014-06-22T07:21:41Z</time>
      </trkpt>
      <trkpt lat="43.90117" lon="4.02436">
        <ele>79.610001</ele>
        <time>2014-06-22T07:21:52Z</time>
      </trkpt>
      <trkpt lat="43.90112" lon="4.02412">
        <ele>82.760002</ele>
        <time>2014-06-22T07:21:58Z</time>
      </trkpt>
      <trkpt lat="43.90103" lon="4.02382">
        <ele>86.720329</ele>
        <time>2014-06-22T07:22:07Z</time>
      </trkpt>
      <trkpt lat="43.90108" lon="4.02362">
        <ele>90.008308</ele>
        <time>2014-06-22T07:22:14Z</time>
      </trkpt>
      <trkpt lat="43.90119" lon="4.02341">
        <ele>93.418533</ele>
        <time>2014-06-22T07:22:23Z</time>
      </trkpt>
      <trkpt lat="43.90133" lon="4.02321">
        <ele>96.351753</ele>
        <time>2014-06-22T07:22:34Z</time>
      </trkpt>
      <trkpt lat="43.90144" lon="4.02306">
        <ele>98.795845</ele>
        <time>2014-06-22T07:22:44Z</time>
      </trkpt>
      <trkpt lat="43.90148" lon="4.02297">
        <ele>100.164604</ele>
        <time>2014-06-22T07:22:50Z</time>
      </trkpt>
      <trkpt lat="43.9016" lon="4.0229">
        <ele>100.90239</ele>
        <time>2014-06-22T07:25:50Z</time>
      </trkpt>
      <trkpt lat="43.9017" lon="4.02274">
        <ele>103.18026</ele>
        <time>2014-06-22T07:25:57Z</time>
      </trkpt>
      <trkpt lat="43.90181" lon="4.0225">
        <ele>107.047951</ele>
        <time>2014-06-22T07:26:07Z</time>
      </trkpt>
      <trkpt lat="43.90194" lon="4.02237">
        <ele>108.2687</ele>
        <time>2014-06-22T07:26:18Z</time>
      </trkpt>
      <trkpt lat="43.90214" lon="4.02221">
        <ele>109.1455</ele>
        <time>2014-06-22T07:26:30Z</time>
      </trkpt>
      <trkpt lat="43.90231" lon="4.02198">
        <ele>110.784996</ele>
        <time>2014-06-22T07:26:43Z</time>
      </trkpt>
      <trkpt lat="43.90244" lon="4.02179">
        <ele>112.791252</ele>
        <time>2014-06-22T07:26:55Z</time>
      </trkpt>
      <trkpt lat="43.90281" lon="4.02142">
        <ele>114.212944</ele>
        <time>2014-06-22T07:28:06Z</time>
      </trkpt>
      <trkpt lat="43.90293" lon="4.0213">
        <ele>115.484146</ele>
        <time>2014-06-22T07:28:14Z</time>
      </trkpt>
      <trkpt lat="43.90317" lon="4.02111">
        <ele>116.786102</ele>
        <time>2014-06-22T07:28:25Z</time>
      </trkpt>
      <trkpt lat="43.9035" lon="4.02086">
        <ele>120.382599</ele>
        <time>2014-06-22T07:28:40Z</time>
      </trkpt>
      <trkpt lat="43.90369" lon="4.02069">
        <ele>122.165085</ele>
        <time>2014-06-22T07:28:51Z</time>
      </trkpt>
      <trkpt lat="43.90388" lon="4.02059">
        <ele>122.450836</ele>
        <time>2014-06-22T07:29:01Z</time>
      </trkpt>
      <trkpt lat="43.90428" lon="4.02045">
        <ele>121.389061</ele>
        <time>2014-06-22T07:29:17Z</time>
      </trkpt>
      <trkpt lat="43.90471" lon="4.01998">
        <ele>123.524559</ele>
        <time>2014-06-22T07:29:36Z</time>
      </trkpt>
      <trkpt lat="43.90456" lon="4.01959">
        <ele>127.565979</ele>
        <time>2014-06-22T07:29:50Z</time>
      </trkpt>
      <trkpt lat="43.90421" lon="4.01927">
        <ele>127.112198</ele>
        <time>2014-06-22T07:30:00Z</time>
      </trkpt>
      <trkpt lat="43.90374" lon="4.01892">
        <ele>124.189499</ele>
        <time>2014-06-22T07:30:09Z</time>
      </trkpt>
      <trkpt lat="43.90349" lon="4.01855">
        <ele>121.494301</ele>
        <time>2014-06-22T07:30:15Z</time>
      </trkpt>
      <trkpt lat="43.90318" lon="4.01793">
        <ele>120.320625</ele>
        <time>2014-06-22T07:30:23Z</time>
      </trkpt>
      <trkpt lat="43.90293" lon="4.01743">
        <ele>119.936996</ele>
        <time>2014-06-22T07:30:30Z</time>
      </trkpt>
      <trkpt lat="43.90257" lon="4.0167">
        <ele>117.283501</ele>
        <time>2014-06-22T07:30:40Z</time>
      </trkpt>
      <trkpt lat="43.90241" lon="4.01596">
        <ele>114.800003</ele>
        <time>2014-06-22T07:30:49Z</time>
      </trkpt>
      <trkpt lat="43.90224" lon="4.01488">
        <ele>110.325577</ele>
        <time>2014-06-22T07:31:01Z</time>
      </trkpt>
      <trkpt lat="43.90251" lon="4.0146">
        <ele>110.613174</ele>
        <time>2014-06-22T07:31:14Z</time>
      </trkpt>
      <trkpt lat="43.90294" lon="4.01456">
        <ele>112.267998</ele>
        <time>2014-06-22T07:31:23Z</time>
      </trkpt>
      <trkpt lat="43.90326" lon="4.01467">
        <ele>115.4245</ele>
        <time>2014-06-22T07:31:32Z</time>
      </trkpt>
      <trkpt lat="43.90358" lon="4.01477">
        <ele>118.28717</ele>
        <time>2014-06-22T07:31:42Z</time>
      </trkpt>
      <trkpt lat="43.90385" lon="4.0147">
        <ele>117.935799</ele>
        <time>2014-06-22T07:31:50Z</time>
      </trkpt>
      <trkpt lat="43.90463" lon="4.01447">
        <ele>117.284996</ele>
        <time>2014-06-22T07:32:09Z</time>
      </trkpt>
      <trkpt lat="43.90547" lon="4.0141">
        <ele>117.6875</ele>
        <time>2014-06-22T07:32:29Z</time>
      </trkpt>
      <trkpt lat="43.90598" lon="4.01372">
        <ele>119.899033</ele>
        <time>2014-06-22T07:32:43Z</time>
      </trkpt>
      <trkpt lat="43.9064" lon="4.01364">
        <ele>122.258026</ele>
        <time>2014-06-22T07:32:56Z</time>
      </trkpt>
      <trkpt lat="43.90671" lon="4.01376">
        <ele>126.162468</ele>
        <time>2014-06-22T07:33:10Z</time>
      </trkpt>
      <trkpt lat="43.90688" lon="4.0139">
        <ele>128.559753</ele>
        <time>2014-06-22T07:33:19Z</time>
      </trkpt>
      <trkpt lat="43.90704" lon="4.01402">
        <ele>130.404373</ele>
        <time>2014-06-22T07:33:30Z</time>
      </trkpt>
      <trkpt lat="43.90735" lon="4.01406">
        <ele>133.340332</ele>
        <time>2014-06-22T07:33:48Z</time>
      </trkpt>
      <trkpt lat="43.90746" lon="4.01388">
        <ele>134.33522</ele>
        <time>2014-06-22T07:33:59Z</time>
      </trkpt>
      <trkpt lat="43.9076" lon="4.01362">
        <ele>134.826859</ele>
        <time>2014-06-22T07:34:13Z</time>
      </trkpt>
      <trkpt lat="43.90766" lon="4.01348">
        <ele>134.690765</ele>
        <time>2014-06-22T07:34:21Z</time>
      </trkpt>
      <trkpt lat="43.90782" lon="4.01307">
        <ele>133.842728</ele>
        <time>2014-06-22T07:34:40Z</time>
      </trkpt>
      <trkpt lat="43.90782" lon="4.01229">
        <ele>133.114349</ele>
        <time>2014-06-22T07:35:00Z</time>
      </trkpt>
      <trkpt lat="43.90792" lon="4.01166">
        <ele>130.281372</ele>
        <time>2014-06-22T07:35:12Z</time>
      </trkpt>
      <trkpt lat="43.90817" lon="4.01139">
        <ele>127.067047</ele>
        <time>2014-06-22T07:35:19Z</time>
      </trkpt>
      <trkpt lat="43.90838" lon="4.0111">
        <ele>122.511185</ele>
        <time>2014-06-22T07:35:26Z</time>
      </trkpt>
      <trkpt lat="43.90832" lon="4.01076">
        <ele>119.09697</ele>
        <time>2014-06-22T07:35:34Z</time>
      </trkpt>
      <trkpt lat="43.90829" lon="4.01041">
        <ele>114.5644</ele>
        <time>2014-06-22T07:35:41Z</time>
      </trkpt>
      <trkpt lat="43.90828" lon="4.01018">
        <ele>111.6875</ele>
        <time>2014-06-22T07:35:49Z</time>
      </trkpt>
      <trkpt lat="43.90807" lon="4.00949">
        <ele>103.091873</ele>
        <time>2014-06-22T07:35:58Z</time>
      </trkpt>
      <trkpt lat="43.90802" lon="4.00911">
        <ele>98.813126</ele>
        <time>2014-06-22T07:36:03Z</time>
      </trkpt>
      <trkpt lat="43.90785" lon="4.00873">
        <ele>95.512131</ele>
        <time>2014-06-22T07:36:10Z</time>
      </trkpt>
      <trkpt lat="43.90788" lon="4.00839">
        <ele>93.323799</ele>
        <time>2014-06-22T07:36:16Z</time>
      </trkpt>
      <trkpt lat="43.90803" lon="4.00792">
        <ele>90.569061</ele>
        <time>2014-06-22T07:36:23Z</time>
      </trkpt>
      <trkpt lat="43.90806" lon="4.00767">
        <ele>90.111374</ele>
        <time>2014-06-22T07:36:28Z</time>
      </trkpt>
      <trkpt lat="43.9079" lon="4.00715">
        <ele>89.003746</ele>
        <time>2014-06-22T07:36:35Z</time>
      </trkpt>
      <trkpt lat="43.90776" lon="4.0067">
        <ele>87.87851</ele>
        <time>2014-06-22T07:36:49Z</time>
      </trkpt>
      <trkpt lat="43.90741" lon="4.007">
        <ele>87.317436</ele>
        <time>2014-06-22T07:37:00Z</time>
      </trkpt>
      <trkpt lat="43.90671" lon="4.00743">
        <ele>88.109184</ele>
        <time>2014-06-22T07:37:18Z</time>
      </trkpt>
      <trkpt lat="43.90632" lon="4.00764">
        <ele>88.720001</ele>
        <time>2014-06-22T07:37:27Z</time>
      </trkpt>
      <trkpt lat="43.90603" lon="4.00783">
        <ele>89.025002</ele>
        <time>2014-06-22T07:37:54Z</time>
      </trkpt>
      <trkpt lat="43.90594" lon="4.00794">
        <ele>90.000877</ele>
        <time>2014-06-22T07:38:02Z</time>
      </trkpt>
      <trkpt lat="43.90575" lon="4.00805">
        <ele>90.923096</ele>
        <time>2014-06-22T07:38:14Z</time>
      </trkpt>
      <trkpt lat="43.90542" lon="4.00817">
        <ele>91.628304</ele>
        <time>2014-06-22T07:38:28Z</time>
      </trkpt>
      <trkpt lat="43.90485" lon="4.00851">
        <ele>91.406097</ele>
        <time>2014-06-22T07:38:47Z</time>
      </trkpt>
      <trkpt lat="43.9044" lon="4.00864">
        <ele>90.898613</ele>
        <time>2014-06-22T07:39:01Z</time>
      </trkpt>
      <trkpt lat="43.90394" lon="4.00877">
        <ele>90.544594</ele>
        <time>2014-06-22T07:39:11Z</time>
      </trkpt>
      <trkpt lat="43.90371" lon="4.00892">
        <ele>89.925003</ele>
        <time>2014-06-22T07:39:16Z</time>
      </trkpt>
      <trkpt lat="43.90349" lon="4.00885">
        <ele>88.925003</ele>
        <time>2014-06-22T07:39:24Z</time>
      </trkpt>
      <trkpt lat="43.90327" lon="4.00874">
        <ele>87.990295</ele>
        <time>2014-06-22T07:39:29Z</time>
      </trkpt>
      <trkpt lat="43.90279" lon="4.00888">
        <ele>87.799255</ele>
        <time>2014-06-22T07:39:37Z</time>
      </trkpt>
      <trkpt lat="43.90237" lon="4.00901">
        <ele>88.120003</ele>
        <time>2014-06-22T07:39:45Z</time>
      </trkpt>
      <trkpt lat="43.90209" lon="4.00904">
        <ele>88.227501</ele>
        <time>2014-06-22T07:39:55Z</time>
      </trkpt>
      <trkpt lat="43.90174" lon="4.00916">
        <ele>88.230003</ele>
        <time>2014-06-22T07:40:08Z</time>
      </trkpt>
      <trkpt lat="43.90132" lon="4.009">
        <ele>86.800003</ele>
        <time>2014-06-22T07:40:20Z</time>
      </trkpt>
      <trkpt lat="43.901" lon="4.00924">
        <ele>86.942093</ele>
        <time>2014-06-22T07:40:30Z</time>
      </trkpt>
      <trkpt lat="43.90071" lon="4.00948">
        <ele>87.157196</ele>
        <time>2014-06-22T07:40:38Z</time>
      </trkpt>
      <trkpt lat="43.90024" lon="4.0092">
        <ele>85.305176</ele>
        <time>2014-06-22T07:40:48Z</time>
      </trkpt>
      <trkpt lat="43.90007" lon="4.00884">
        <ele>83.760002</ele>
        <time>2014-06-22T07:40:54Z</time>
      </trkpt>
      <trkpt lat="43.89968" lon="4.00919">
        <ele>83.947502</ele>
        <time>2014-06-22T07:41:05Z</time>
      </trkpt>
      <trkpt lat="43.89907" lon="4.00949">
        <ele>84.610252</ele>
        <time>2014-06-22T07:41:17Z</time>
      </trkpt>
      <trkpt lat="43.89888" lon="4.00965">
        <ele>84.797195</ele>
        <time>2014-06-22T07:41:26Z</time>
      </trkpt>
      <trkpt lat="43.89863" lon="4.01003">
        <ele>85.466171</ele>
        <time>2014-06-22T07:41:35Z</time>
      </trkpt>
      <trkpt lat="43.89837" lon="4.01023">
        <ele>85.541351</ele>
        <time>2014-06-22T07:41:41Z</time>
      </trkpt>
      <trkpt lat="43.89808" lon="4.01033">
        <ele>85.245003</ele>
        <time>2014-06-22T07:41:47Z</time>
      </trkpt>
      <trkpt lat="43.89771" lon="4.01029">
        <ele>84.208618</ele>
        <time>2014-06-22T07:41:55Z</time>
      </trkpt>
      <trkpt lat="43.89746" lon="4.01009">
        <ele>83.127304</ele>
        <time>2014-06-22T07:42:00Z</time>
      </trkpt>
      <trkpt lat="43.89711" lon="4.01029">
        <ele>82.457733</ele>
        <time>2014-06-22T07:42:08Z</time>
      </trkpt>
      <trkpt lat="43.89668" lon="4.01045">
        <ele>80.968231</ele>
        <time>2014-06-22T07:42:18Z</time>
      </trkpt>
      <trkpt lat="43.89642" lon="4.01074">
        <ele>80.471939</ele>
        <time>2014-06-22T07:42:24Z</time>
      </trkpt>
      <trkpt lat="43.89606" lon="4.01088">
        <ele>81.827591</ele>
        <time>2014-06-22T07:42:33Z</time>
      </trkpt>
      <trkpt lat="43.89576" lon="4.01058">
        <ele>80.587143</ele>
        <time>2014-06-22T07:42:43Z</time>
      </trkpt>
      <trkpt lat="43.89549" lon="4.00998">
        <ele>80.192818</ele>
        <time>2014-06-22T07:42:53Z</time>
      </trkpt>
      <trkpt lat="43.8951" lon="4.01005">
        <ele>81.053284</ele>
        <time>2014-06-22T07:43:05Z</time>
      </trkpt>
      <trkpt lat="43.89472" lon="4.01018">
        <ele>81.001457</ele>
        <time>2014-06-22T07:43:17Z</time>
      </trkpt>
      <trkpt lat="43.89438" lon="4.01017">
        <ele>78.98455</ele>
        <time>2014-06-22T07:43:25Z</time>
      </trkpt>
      <trkpt lat="43.89459" lon="4.01045">
        <ele>80.373199</ele>
        <time>2014-06-22T07:43:39Z</time>
      </trkpt>
      <trkpt lat="43.89485" lon="4.01058">
        <ele>81.291397</ele>
        <time>2014-06-22T07:43:49Z</time>
      </trkpt>
      <trkpt lat="43.89516" lon="4.0107">
        <ele>82.116249</ele>
        <time>2014-06-22T07:43:59Z</time>
      </trkpt>
      <trkpt lat="43.89576" lon="4.01069">
        <ele>80.933594</ele>
        <time>2014-06-22T07:44:14Z</time>
      </trkpt>
      <trkpt lat="43.89587" lon="4.01099">
        <ele>82.948212</ele>
        <time>2014-06-22T07:44:24Z</time>
      </trkpt>
      <trkpt lat="43.8959" lon="4.0112">
        <ele>84.47963</ele>
        <time>2014-06-22T07:44:32Z</time>
      </trkpt>
      <trkpt lat="43.89572" lon="4.01149">
        <ele>86.194916</ele>
        <time>2014-06-22T07:44:45Z</time>
      </trkpt>
      <trkpt lat="43.89544" lon="4.01184">
        <ele>86.493065</ele>
        <time>2014-06-22T07:44:56Z</time>
      </trkpt>
      <trkpt lat="43.89513" lon="4.01213">
        <ele>84.393303</ele>
        <time>2014-06-22T07:45:03Z</time>
      </trkpt>
      <trkpt lat="43.8951" lon="4.01234">
        <ele>84.654427</ele>
        <time>2014-06-22T07:45:08Z</time>
      </trkpt>
      <trkpt lat="43.895" lon="4.01255">
        <ele>85.031837</ele>
        <time>2014-06-22T07:45:19Z</time>
      </trkpt>
      <trkpt lat="43.8948" lon="4.01277">
        <ele>86.332565</ele>
        <time>2014-06-22T07:45:33Z</time>
      </trkpt>
      <trkpt lat="43.89473" lon="4.01293">
        <ele>87.542801</ele>
        <time>2014-06-22T07:45:42Z</time>
      </trkpt>
      <trkpt lat="43.89463" lon="4.01322">
        <ele>89.57</ele>
        <time>2014-06-22T07:45:54Z</time>
      </trkpt>
      <trkpt lat="43.89447" lon="4.01354">
        <ele>91.15625</ele>
        <time>2014-06-22T07:46:05Z</time>
      </trkpt>
      <trkpt lat="43.89431" lon="4.01372">
        <ele>92.009056</ele>
        <time>2014-06-22T07:46:13Z</time>
      </trkpt>
      <trkpt lat="43.89403" lon="4.01424">
        <ele>92.458748</ele>
        <time>2014-06-22T07:46:33Z</time>
      </trkpt>
      <trkpt lat="43.89374" lon="4.01472">
        <ele>91.9646</ele>
        <time>2014-06-22T07:46:45Z</time>
      </trkpt>
      <trkpt lat="43.89346" lon="4.01483">
        <ele>90.615204</ele>
        <time>2014-06-22T07:46:52Z</time>
      </trkpt>
      <trkpt lat="43.89334" lon="4.01509">
        <ele>90.695976</ele>
        <time>2014-06-22T07:46:59Z</time>
      </trkpt>
      <trkpt lat="43.89328" lon="4.01541">
        <ele>91.537498</ele>
        <time>2014-06-22T07:47:09Z</time>
      </trkpt>
      <trkpt lat="43.89317" lon="4.0158">
        <ele>92.067131</ele>
        <time>2014-06-22T07:47:19Z</time>
      </trkpt>
      <trkpt lat="43.89296" lon="4.01663">
        <ele>90.129997</ele>
        <time>2014-06-22T07:47:33Z</time>
      </trkpt>
      <trkpt lat="43.89272" lon="4.01715">
        <ele>87.529869</ele>
        <time>2014-06-22T07:47:42Z</time>
      </trkpt>
      <trkpt lat="43.89244" lon="4.01773">
        <ele>87.063751</ele>
        <time>2014-06-22T07:47:51Z</time>
      </trkpt>
      <trkpt lat="43.89207" lon="4.01807">
        <ele>87.644096</ele>
        <time>2014-06-22T07:47:59Z</time>
      </trkpt>
      <trkpt lat="43.89163" lon="4.01836">
        <ele>88.591904</ele>
        <time>2014-06-22T07:48:09Z</time>
      </trkpt>
      <trkpt lat="43.89141" lon="4.01855">
        <ele>89.579575</ele>
        <time>2014-06-22T07:48:18Z</time>
      </trkpt>
      <trkpt lat="43.89098" lon="4.01954">
        <ele>91.601021</ele>
        <time>2014-06-22T07:48:42Z</time>
      </trkpt>
      <trkpt lat="43.89067" lon="4.02023">
        <ele>93.219254</ele>
        <time>2014-06-22T07:48:56Z</time>
      </trkpt>
      <trkpt lat="43.89043" lon="4.02076">
        <ele>93.607025</ele>
        <time>2014-06-22T07:49:10Z</time>
      </trkpt>
      <trkpt lat="43.8903" lon="4.02115">
        <ele>93.9179</ele>
        <time>2014-06-22T07:49:21Z</time>
      </trkpt>
      <trkpt lat="43.88985" lon="4.02199">
        <ele>91.717499</ele>
        <time>2014-06-22T07:49:40Z</time>
      </trkpt>
      <trkpt lat="43.88959" lon="4.02233">
        <ele>89.864998</ele>
        <time>2014-06-22T07:49:46Z</time>
      </trkpt>
      <trkpt lat="43.88936" lon="4.02241">
        <ele>88.250267</ele>
        <time>2014-06-22T07:49:51Z</time>
      </trkpt>
      <trkpt lat="43.88911" lon="4.02204">
        <ele>88.884247</ele>
        <time>2014-06-22T07:50:02Z</time>
      </trkpt>
      <trkpt lat="43.88915" lon="4.02162">
        <ele>90</ele>
        <time>2014-06-22T07:50:15Z</time>
      </trkpt>
      <trkpt lat="43.88888" lon="4.02122">
        <ele>90.605003</ele>
        <time>2014-06-22T07:50:30Z</time>
      </trkpt>
      <trkpt lat="43.8885" lon="4.02081">
        <ele>91</ele>
        <time>2014-06-22T07:50:41Z</time>
      </trkpt>
      <trkpt lat="43.88809" lon="4.02025">
        <ele>90.497383</ele>
        <time>2014-06-22T07:50:52Z</time>
      </trkpt>
      <trkpt lat="43.88762" lon="4.02024">
        <ele>90.353676</ele>
        <time>2014-06-22T07:51:01Z</time>
      </trkpt>
      <trkpt lat="43.88711" lon="4.01987">
        <ele>90.846252</ele>
        <time>2014-06-22T07:51:12Z</time>
      </trkpt>
      <trkpt lat="43.88692" lon="4.0193">
        <ele>90.376251</ele>
        <time>2014-06-22T07:51:20Z</time>
      </trkpt>
      <trkpt lat="43.88681" lon="4.01852">
        <ele>86.650002</ele>
        <time>2014-06-22T07:51:30Z</time>
      </trkpt>
      <trkpt lat="43.88649" lon="4.01813">
        <ele>85.400002</ele>
        <time>2014-06-22T07:51:38Z</time>
      </trkpt>
      <trkpt lat="43.8864" lon="4.01768">
        <ele>83.216499</ele>
        <time>2014-06-22T07:51:47Z</time>
      </trkpt>
      <trkpt lat="43.88681" lon="4.01712">
        <ele>80.92308</ele>
        <time>2014-06-22T07:51:57Z</time>
      </trkpt>
      <trkpt lat="43.88719" lon="4.01648">
        <ele>76.745605</ele>
        <time>2014-06-22T07:52:07Z</time>
      </trkpt>
      <trkpt lat="43.8875" lon="4.01619">
        <ele>73.829376</ele>
        <time>2014-06-22T07:52:13Z</time>
      </trkpt>
      <trkpt lat="43.8875" lon="4.01604">
        <ele>72.741501</ele>
        <time>2014-06-22T07:52:20Z</time>
      </trkpt>
      <trkpt lat="43.88729" lon="4.01602">
        <ele>72.247406</ele>
        <time>2014-06-22T07:52:27Z</time>
      </trkpt>
      <trkpt lat="43.88698" lon="4.01604">
        <ele>72.654999</ele>
        <time>2014-06-22T07:52:37Z</time>
      </trkpt>
      <trkpt lat="43.88659" lon="4.01596">
        <ele>71.032501</ele>
        <time>2014-06-22T07:52:49Z</time>
      </trkpt>
      <trkpt lat="43.88628" lon="4.0161">
        <ele>71.184532</ele>
        <time>2014-06-22T07:52:56Z</time>
      </trkpt>
      <trkpt lat="43.88615" lon="4.0165">
        <ele>73.983116</ele>
        <time>2014-06-22T07:53:03Z</time>
      </trkpt>
      <trkpt lat="43.88562" lon="4.017">
        <ele>74.207497</ele>
        <time>2014-06-22T07:53:16Z</time>
      </trkpt>
      <trkpt lat="43.88514" lon="4.0175">
        <ele>75.029999</ele>
        <time>2014-06-22T07:53:28Z</time>
      </trkpt>
      <trkpt lat="43.88424" lon="4.018">
        <ele>76.004997</ele>
        <time>2014-06-22T07:53:46Z</time>
      </trkpt>
      <trkpt lat="43.88363" lon="4.01798">
        <ele>74.989998</ele>
        <time>2014-06-22T07:53:58Z</time>
      </trkpt>
      <trkpt lat="43.88313" lon="4.01804">
        <ele>74.675056</ele>
        <time>2014-06-22T07:54:09Z</time>
      </trkpt>
      <trkpt lat="43.88296" lon="4.01826">
        <ele>76.315155</ele>
        <time>2014-06-22T07:54:14Z</time>
      </trkpt>
      <trkpt lat="43.88231" lon="4.01859">
        <ele>75.045982</ele>
        <time>2014-06-22T07:54:28Z</time>
      </trkpt>
      <trkpt lat="43.88072" lon="4.01903">
        <ele>74.889412</ele>
        <time>2014-06-22T07:54:56Z</time>
      </trkpt>
      <trkpt lat="43.87931" lon="4.01968">
        <ele>75.335938</ele>
        <time>2014-06-22T07:55:22Z</time>
      </trkpt>
      <trkpt lat="43.87779" lon="4.01992">
        <ele>70.782761</ele>
        <time>2014-06-22T07:55:49Z</time>
      </trkpt>
      <trkpt lat="43.87745" lon="4.02007">
        <ele>70.94912</ele>
        <time>2014-06-22T07:55:55Z</time>
      </trkpt>
      <trkpt lat="43.87673" lon="4.02046">
        <ele>67.417976</ele>
        <time>2014-06-22T07:56:05Z</time>
      </trkpt>
      <trkpt lat="43.87634" lon="4.02062">
        <ele>63.730377</ele>
        <time>2014-06-22T07:56:14Z</time>
      </trkpt>
      <trkpt lat="43.87608" lon="4.02049">
        <ele>60.633995</ele>
        <time>2014-06-22T08:11:11Z</time>
      </trkpt>
      <trkpt lat="43.87567" lon="4.01987">
        <ele>61.927635</ele>
        <time>2014-06-22T08:11:30Z</time>
      </trkpt>
      <trkpt lat="43.87523" lon="4.01969">
        <ele>65.443748</ele>
        <time>2014-06-22T08:11:43Z</time>
      </trkpt>
      <trkpt lat="43.87475" lon="4.01975">
        <ele>67.171249</ele>
        <time>2014-06-22T08:11:56Z</time>
      </trkpt>
      <trkpt lat="43.87392" lon="4.01978">
        <ele>67.813751</ele>
        <time>2014-06-22T08:12:21Z</time>
      </trkpt>
      <trkpt lat="43.87341" lon="4.0191">
        <ele>69.568497</ele>
        <time>2014-06-22T08:12:40Z</time>
      </trkpt>
      <trkpt lat="43.87277" lon="4.01838">
        <ele>69.612526</ele>
        <time>2014-06-22T08:12:59Z</time>
      </trkpt>
      <trkpt lat="43.87212" lon="4.0182">
        <ele>68.474998</ele>
        <time>2014-06-22T08:13:14Z</time>
      </trkpt>
      <trkpt lat="43.87143" lon="4.01693">
        <ele>69.177498</ele>
        <time>2014-06-22T08:13:38Z</time>
      </trkpt>
      <trkpt lat="43.87108" lon="4.01617">
        <ele>67.662544</ele>
        <time>2014-06-22T08:13:52Z</time>
      </trkpt>
      <trkpt lat="43.87102" lon="4.01585">
        <ele>67.021248</ele>
        <time>2014-06-22T08:14:01Z</time>
      </trkpt>
      <trkpt lat="43.87075" lon="4.01564">
        <ele>66.099998</ele>
        <time>2014-06-22T08:14:09Z</time>
      </trkpt>
      <trkpt lat="43.8708" lon="4.0147">
        <ele>65.286186</ele>
        <time>2014-06-22T08:14:21Z</time>
      </trkpt>
      <trkpt lat="43.87047" lon="4.01376">
        <ele>65.982498</ele>
        <time>2014-06-22T08:14:35Z</time>
      </trkpt>
      <trkpt lat="43.87014" lon="4.01297">
        <ele>67.534996</ele>
        <time>2014-06-22T08:14:48Z</time>
      </trkpt>
      <trkpt lat="43.86951" lon="4.01157">
        <ele>70.754646</ele>
        <time>2014-06-22T08:15:13Z</time>
      </trkpt>
      <trkpt lat="43.86933" lon="4.01112">
        <ele>72.535553</ele>
        <time>2014-06-22T08:15:22Z</time>
      </trkpt>
      <trkpt lat="43.86903" lon="4.01029">
        <ele>75.460449</ele>
        <time>2014-06-22T08:15:38Z</time>
      </trkpt>
      <trkpt lat="43.86914" lon="4.0094">
        <ele>77.152908</ele>
        <time>2014-06-22T08:15:54Z</time>
      </trkpt>
      <trkpt lat="43.86925" lon="4.00854">
        <ele>77.443748</ele>
        <time>2014-06-22T08:16:09Z</time>
      </trkpt>
      <trkpt lat="43.86945" lon="4.00689">
        <ele>75.027641</ele>
        <time>2014-06-22T08:16:30Z</time>
      </trkpt>
      <trkpt lat="43.86977" lon="4.00554">
        <ele>71.820465</ele>
        <time>2014-06-22T08:16:47Z</time>
      </trkpt>
      <trkpt lat="43.87013" lon="4.00427">
        <ele>78.39325</ele>
        <time>2014-06-22T08:17:06Z</time>
      </trkpt>
      <trkpt lat="43.87021" lon="4.00328">
        <ele>78.78817</ele>
        <time>2014-06-22T08:17:21Z</time>
      </trkpt>
      <trkpt lat="43.87016" lon="4.0019">
        <ele>78.286751</ele>
        <time>2014-06-22T08:17:42Z</time>
      </trkpt>
      <trkpt lat="43.87024" lon="4.00035">
        <ele>78.697502</ele>
        <time>2014-06-22T08:18:02Z</time>
      </trkpt>
      <trkpt lat="43.87023" lon="3.9992">
        <ele>78.639999</ele>
        <time>2014-06-22T08:18:18Z</time>
      </trkpt>
      <trkpt lat="43.87034" lon="3.99823">
        <ele>79.5</ele>
        <time>2014-06-22T08:18:32Z</time>
      </trkpt>
      <trkpt lat="43.87069" lon="3.99715">
        <ele>80.783752</ele>
        <time>2014-06-22T08:18:50Z</time>
      </trkpt>
      <trkpt lat="43.87099" lon="3.996">
        <ele>82.057396</ele>
        <time>2014-06-22T08:19:08Z</time>
      </trkpt>
      <trkpt lat="43.87126" lon="3.99519">
        <ele>82.409973</ele>
        <time>2014-06-22T08:19:21Z</time>
      </trkpt>
      <trkpt lat="43.87159" lon="3.99486">
        <ele>83.040001</ele>
        <time>2014-06-22T08:19:30Z</time>
      </trkpt>
      <trkpt lat="43.87229" lon="3.99422">
        <ele>84.25</ele>
        <time>2014-06-22T08:19:48Z</time>
      </trkpt>
      <trkpt lat="43.8728" lon="3.99343">
        <ele>84.419739</ele>
        <time>2014-06-22T08:20:04Z</time>
      </trkpt>
      <trkpt lat="43.8735" lon="3.99148">
        <ele>87.790001</ele>
        <time>2014-06-22T08:20:36Z</time>
      </trkpt>
      <trkpt lat="43.87373" lon="3.99007">
        <ele>90.073753</ele>
        <time>2014-06-22T08:20:57Z</time>
      </trkpt>
      <trkpt lat="43.87393" lon="3.9895">
        <ele>91.054535</ele>
        <time>2014-06-22T08:21:06Z</time>
      </trkpt>
      <trkpt lat="43.87457" lon="3.98832">
        <ele>93.915001</ele>
        <time>2014-06-22T08:21:27Z</time>
      </trkpt>
      <trkpt lat="43.8747" lon="3.98788">
        <ele>94</ele>
        <time>2014-06-22T08:21:35Z</time>
      </trkpt>
      <trkpt lat="43.87486" lon="3.98705">
        <ele>94.98687</ele>
        <time>2014-06-22T08:21:50Z</time>
      </trkpt>
      <trkpt lat="43.87509" lon="3.9866">
        <ele>95.382965</ele>
        <time>2014-06-22T08:21:59Z</time>
      </trkpt>
      <trkpt lat="43.8754" lon="3.98569">
        <ele>96.401253</ele>
        <time>2014-06-22T08:22:14Z</time>
      </trkpt>
      <trkpt lat="43.87548" lon="3.98502">
        <ele>97.360001</ele>
        <time>2014-06-22T08:22:28Z</time>
      </trkpt>
      <trkpt lat="43.87607" lon="3.98447">
        <ele>98.842499</ele>
        <time>2014-06-22T08:22:47Z</time>
      </trkpt>
      <trkpt lat="43.87665" lon="3.98436">
        <ele>99.962112</ele>
        <time>2014-06-22T08:23:03Z</time>
      </trkpt>
      <trkpt lat="43.87724" lon="3.98432">
        <ele>101.116707</ele>
        <time>2014-06-22T08:23:19Z</time>
      </trkpt>
      <trkpt lat="43.87814" lon="3.98388">
        <ele>101.472504</ele>
        <time>2014-06-22T08:23:44Z</time>
      </trkpt>
      <trkpt lat="43.87876" lon="3.98367">
        <ele>102.212502</ele>
        <time>2014-06-22T08:24:00Z</time>
      </trkpt>
      <trkpt lat="43.87916" lon="3.98364">
        <ele>102.681007</ele>
        <time>2014-06-22T08:24:31Z</time>
      </trkpt>
      <trkpt lat="43.87918" lon="3.98405">
        <ele>101.009621</ele>
        <time>2014-06-22T08:24:40Z</time>
      </trkpt>
      <trkpt lat="43.87946" lon="3.98413">
        <ele>101.339996</ele>
        <time>2014-06-22T08:24:58Z</time>
      </trkpt>
      <trkpt lat="43.8797" lon="3.98438">
        <ele>102.43</ele>
        <time>2014-06-22T08:25:09Z</time>
      </trkpt>
      <trkpt lat="43.87971" lon="3.9847">
        <ele>102.507782</ele>
        <time>2014-06-22T08:25:17Z</time>
      </trkpt>
      <trkpt lat="43.87979" lon="3.98521">
        <ele>102.950172</ele>
        <time>2014-06-22T08:25:26Z</time>
      </trkpt>
      <trkpt lat="43.88006" lon="3.98495">
        <ele>103.856667</ele>
        <time>2014-06-22T08:25:37Z</time>
      </trkpt>
      <trkpt lat="43.88067" lon="3.98476">
        <ele>106.638153</ele>
        <time>2014-06-22T08:25:56Z</time>
      </trkpt>
      <trkpt lat="43.88101" lon="3.98447">
        <ele>108.331215</ele>
        <time>2014-06-22T08:26:07Z</time>
      </trkpt>
      <trkpt lat="43.88138" lon="3.98407">
        <ele>110.548882</ele>
        <time>2014-06-22T08:26:20Z</time>
      </trkpt>
      <trkpt lat="43.88177" lon="3.98353">
        <ele>113.5019</ele>
        <time>2014-06-22T08:26:36Z</time>
      </trkpt>
      <trkpt lat="43.88218" lon="3.98283">
        <ele>116.314056</ele>
        <time>2014-06-22T08:26:54Z</time>
      </trkpt>
      <trkpt lat="43.88249" lon="3.98256">
        <ele>117.913223</ele>
        <time>2014-06-22T08:27:04Z</time>
      </trkpt>
      <trkpt lat="43.8829" lon="3.98216">
        <ele>120.151093</ele>
        <time>2014-06-22T08:27:19Z</time>
      </trkpt>
      <trkpt lat="43.88337" lon="3.98174">
        <ele>121.055</ele>
        <time>2014-06-22T08:27:34Z</time>
      </trkpt>
      <trkpt lat="43.88407" lon="3.98127">
        <ele>123.42482</ele>
        <time>2014-06-22T08:27:54Z</time>
      </trkpt>
      <trkpt lat="43.88463" lon="3.98122">
        <ele>125.728722</ele>
        <time>2014-06-22T08:28:13Z</time>
      </trkpt>
      <trkpt lat="43.88491" lon="3.98106">
        <ele>127.522995</ele>
        <time>2014-06-22T08:28:26Z</time>
      </trkpt>
      <trkpt lat="43.8852" lon="3.98083">
        <ele>129.335739</ele>
        <time>2014-06-22T08:28:39Z</time>
      </trkpt>
      <trkpt lat="43.88546" lon="3.98061">
        <ele>130.102509</ele>
        <time>2014-06-22T08:28:52Z</time>
      </trkpt>
      <trkpt lat="43.88595" lon="3.98009">
        <ele>131.975037</ele>
        <time>2014-06-22T08:29:14Z</time>
      </trkpt>
      <trkpt lat="43.88639" lon="3.97937">
        <ele>131.994995</ele>
        <time>2014-06-22T08:29:34Z</time>
      </trkpt>
      <trkpt lat="43.88665" lon="3.97933">
        <ele>129.94191</ele>
        <time>2014-06-22T08:29:40Z</time>
      </trkpt>
      <trkpt lat="43.88678" lon="3.97871">
        <ele>134.372604</ele>
        <time>2014-06-22T08:29:53Z</time>
      </trkpt>
      <trkpt lat="43.88683" lon="3.97833">
        <ele>136.23407</ele>
        <time>2014-06-22T08:30:03Z</time>
      </trkpt>
      <trkpt lat="43.88702" lon="3.97797">
        <ele>138.100006</ele>
        <time>2014-06-22T08:30:14Z</time>
      </trkpt>
      <trkpt lat="43.88737" lon="3.97757">
        <ele>141.305008</ele>
        <time>2014-06-22T08:30:31Z</time>
      </trkpt>
      <trkpt lat="43.88764" lon="3.97745">
        <ele>143.459991</ele>
        <time>2014-06-22T08:30:42Z</time>
      </trkpt>
      <trkpt lat="43.88796" lon="3.97745">
        <ele>145.662506</ele>
        <time>2014-06-22T08:30:54Z</time>
      </trkpt>
      <trkpt lat="43.88808" lon="3.97732">
        <ele>146.517975</ele>
        <time>2014-06-22T08:31:03Z</time>
      </trkpt>
      <trkpt lat="43.88831" lon="3.97726">
        <ele>146.945007</ele>
        <time>2014-06-22T08:31:12Z</time>
      </trkpt>
      <trkpt lat="43.8884" lon="3.97715">
        <ele>147.503433</ele>
        <time>2014-06-22T08:31:24Z</time>
      </trkpt>
      <trkpt lat="43.88855" lon="3.97686">
        <ele>148.423309</ele>
        <time>2014-06-22T08:31:37Z</time>
      </trkpt>
      <trkpt lat="43.88879" lon="3.9769">
        <ele>146.179245</ele>
        <time>2014-06-22T08:31:50Z</time>
      </trkpt>
      <trkpt lat="43.88897" lon="3.97697">
        <ele>144.476501</ele>
        <time>2014-06-22T08:33:08Z</time>
      </trkpt>
      <trkpt lat="43.88932" lon="3.97702">
        <ele>141.067612</ele>
        <time>2014-06-22T08:33:18Z</time>
      </trkpt>
      <trkpt lat="43.8897" lon="3.97702">
        <ele>138.897186</ele>
        <time>2014-06-22T08:33:29Z</time>
      </trkpt>
      <trkpt lat="43.88981" lon="3.97679">
        <ele>140.372131</ele>
        <time>2014-06-22T08:33:42Z</time>
      </trkpt>
      <trkpt lat="43.88982" lon="3.97623">
        <ele>146.846405</ele>
        <time>2014-06-22T08:34:02Z</time>
      </trkpt>
      <trkpt lat="43.88985" lon="3.97604">
        <ele>149.433746</ele>
        <time>2014-06-22T08:34:10Z</time>
      </trkpt>
      <trkpt lat="43.89007" lon="3.97585">
        <ele>150.365005</ele>
        <time>2014-06-22T08:34:25Z</time>
      </trkpt>
      <trkpt lat="43.89034" lon="3.97566">
        <ele>150.850006</ele>
        <time>2014-06-22T08:34:39Z</time>
      </trkpt>
      <trkpt lat="43.8905" lon="3.97528">
        <ele>154.360001</ele>
        <time>2014-06-22T08:34:55Z</time>
      </trkpt>
      <trkpt lat="43.89063" lon="3.97489">
        <ele>159.141327</ele>
        <time>2014-06-22T08:35:10Z</time>
      </trkpt>
      <trkpt lat="43.89086" lon="3.97469">
        <ele>161.544022</ele>
        <time>2014-06-22T08:35:22Z</time>
      </trkpt>
      <trkpt lat="43.89109" lon="3.97449">
        <ele>165.310867</ele>
        <time>2014-06-22T08:35:35Z</time>
      </trkpt>
      <trkpt lat="43.8914" lon="3.97456">
        <ele>164.389145</ele>
        <time>2014-06-22T08:35:48Z</time>
      </trkpt>
      <trkpt lat="43.89169" lon="3.97448">
        <ele>166.811371</ele>
        <time>2014-06-22T08:36:01Z</time>
      </trkpt>
      <trkpt lat="43.89191" lon="3.97433">
        <ele>170.477768</ele>
        <time>2014-06-22T08:36:11Z</time>
      </trkpt>
      <trkpt lat="43.8921" lon="3.97418">
        <ele>174.843246</ele>
        <time>2014-06-22T08:36:20Z</time>
      </trkpt>
      <trkpt lat="43.89238" lon="3.97411">
        <ele>175.370346</ele>
        <time>2014-06-22T08:36:31Z</time>
      </trkpt>
      <trkpt lat="43.89268" lon="3.97412">
        <ele>172.979004</ele>
        <time>2014-06-22T08:36:41Z</time>
      </trkpt>
      <trkpt lat="43.89306" lon="3.97378">
        <ele>172.198212</ele>
        <time>2014-06-22T08:37:21Z</time>
      </trkpt>
      <trkpt lat="43.89318" lon="3.97352">
        <ele>172.56337</ele>
        <time>2014-06-22T08:37:31Z</time>
      </trkpt>
      <trkpt lat="43.89339" lon="3.97304">
        <ele>172.082733</ele>
        <time>2014-06-22T08:37:41Z</time>
      </trkpt>
      <trkpt lat="43.89355" lon="3.97248">
        <ele>181.211319</ele>
        <time>2014-06-22T08:37:51Z</time>
      </trkpt>
      <trkpt lat="43.89385" lon="3.97274">
        <ele>179.815002</ele>
        <time>2014-06-22T08:38:01Z</time>
      </trkpt>
      <trkpt lat="43.89412" lon="3.97333">
        <ele>176.780746</ele>
        <time>2014-06-22T08:38:17Z</time>
      </trkpt>
      <trkpt lat="43.89429" lon="3.97355">
        <ele>178.954926</ele>
        <time>2014-06-22T08:38:26Z</time>
      </trkpt>
      <trkpt lat="43.89455" lon="3.97376">
        <ele>180.548355</ele>
        <time>2014-06-22T08:38:39Z</time>
      </trkpt>
      <trkpt lat="43.89497" lon="3.97384">
        <ele>185.42955</ele>
        <time>2014-06-22T08:41:11Z</time>
      </trkpt>
      <trkpt lat="43.89521" lon="3.97414">
        <ele>182.787506</ele>
        <time>2014-06-22T08:41:20Z</time>
      </trkpt>
      <trkpt lat="43.89536" lon="3.97434">
        <ele>178.652817</ele>
        <time>2014-06-22T08:41:27Z</time>
      </trkpt>
      <trkpt lat="43.89572" lon="3.97449">
        <ele>173.158997</ele>
        <time>2014-06-22T08:41:36Z</time>
      </trkpt>
      <trkpt lat="43.89618" lon="3.97399">
        <ele>172.240601</ele>
        <time>2014-06-22T08:41:46Z</time>
      </trkpt>
      <trkpt lat="43.89674" lon="3.9729">
        <ele>167.839905</ele>
        <time>2014-06-22T08:42:00Z</time>
      </trkpt>
      <trkpt lat="43.89705" lon="3.97268">
        <ele>167.086304</ele>
        <time>2014-06-22T08:42:08Z</time>
      </trkpt>
      <trkpt lat="43.89743" lon="3.9731">
        <ele>169.911255</ele>
        <time>2014-06-22T08:42:17Z</time>
      </trkpt>
      <trkpt lat="43.89799" lon="3.97409">
        <ele>172.278198</ele>
        <time>2014-06-22T08:42:33Z</time>
      </trkpt>
      <trkpt lat="43.89828" lon="3.97445">
        <ele>170.858353</ele>
        <time>2014-06-22T08:42:40Z</time>
      </trkpt>
      <trkpt lat="43.89946" lon="3.97442">
        <ele>170.601547</ele>
        <time>2014-06-22T08:43:02Z</time>
      </trkpt>
      <trkpt lat="43.90011" lon="3.97418">
        <ele>172.501419</ele>
        <time>2014-06-22T08:43:14Z</time>
      </trkpt>
      <trkpt lat="43.90061" lon="3.9741">
        <ele>168.862305</ele>
        <time>2014-06-22T08:43:23Z</time>
      </trkpt>
      <trkpt lat="43.90115" lon="3.97375">
        <ele>165.798782</ele>
        <time>2014-06-22T08:43:44Z</time>
      </trkpt>
      <trkpt lat="43.90108" lon="3.97415">
        <ele>158.119995</ele>
        <time>2014-06-22T08:46:07Z</time>
      </trkpt>
      <trkpt lat="43.90106" lon="3.97447">
        <ele>151.014999</ele>
        <time>2014-06-22T08:46:14Z</time>
      </trkpt>
      <trkpt lat="43.90107" lon="3.9746">
        <ele>147.804993</ele>
        <time>2014-06-22T08:46:18Z</time>
      </trkpt>
      <trkpt lat="43.90109" lon="3.97475">
        <ele>144.094482</ele>
        <time>2014-06-22T08:46:22Z</time>
      </trkpt>
      <trkpt lat="43.90112" lon="3.97494">
        <ele>140.982208</ele>
        <time>2014-06-22T08:46:27Z</time>
      </trkpt>
      <trkpt lat="43.90125" lon="3.97511">
        <ele>136.729599</ele>
        <time>2014-06-22T08:46:34Z</time>
      </trkpt>
      <trkpt lat="43.90134" lon="3.97501">
        <ele>136.035004</ele>
        <time>2014-06-22T08:47:39Z</time>
      </trkpt>
      <trkpt lat="43.90147" lon="3.97508">
        <ele>133.226807</ele>
        <time>2014-06-22T08:47:46Z</time>
      </trkpt>
      <trkpt lat="43.90159" lon="3.9753">
        <ele>130.058487</ele>
        <time>2014-06-22T08:47:54Z</time>
      </trkpt>
      <trkpt lat="43.90168" lon="3.97534">
        <ele>128.936111</ele>
        <time>2014-06-22T08:47:59Z</time>
      </trkpt>
      <trkpt lat="43.90191" lon="3.97549">
        <ele>126.523827</ele>
        <time>2014-06-22T08:48:08Z</time>
      </trkpt>
      <trkpt lat="43.9018" lon="3.97553">
        <ele>127.357491</ele>
        <time>2014-06-22T08:48:18Z</time>
      </trkpt>
      <trkpt lat="43.90189" lon="3.97562">
        <ele>126.369629</ele>
        <time>2014-06-22T08:48:23Z</time>
      </trkpt>
      <trkpt lat="43.90189" lon="3.97591">
        <ele>125.827248</ele>
        <time>2014-06-22T08:48:34Z</time>
      </trkpt>
      <trkpt lat="43.90192" lon="3.97632">
        <ele>125.761848</ele>
        <time>2014-06-22T08:48:41Z</time>
      </trkpt>
      <trkpt lat="43.90194" lon="3.97644">
        <ele>125.814491</ele>
        <time>2014-06-22T08:48:48Z</time>
      </trkpt>
      <trkpt lat="43.90191" lon="3.97629">
        <ele>125.741302</ele>
        <time>2014-06-22T08:48:59Z</time>
      </trkpt>
      <trkpt lat="43.90187" lon="3.97595">
        <ele>125.888931</ele>
        <time>2014-06-22T08:49:09Z</time>
      </trkpt>
      <trkpt lat="43.90186" lon="3.97622">
        <ele>125.966972</ele>
        <time>2014-06-22T08:49:20Z</time>
      </trkpt>
      <trkpt lat="43.90204" lon="3.97654">
        <ele>125.379997</ele>
        <time>2014-06-22T08:49:33Z</time>
      </trkpt>
      <trkpt lat="43.90217" lon="3.9767">
        <ele>125.068687</ele>
        <time>2014-06-22T08:49:43Z</time>
      </trkpt>
      <trkpt lat="43.90226" lon="3.97685">
        <ele>125.699501</ele>
        <time>2014-06-22T08:49:50Z</time>
      </trkpt>
      <trkpt lat="43.90255" lon="3.97688">
        <ele>124.043434</ele>
        <time>2014-06-22T08:49:59Z</time>
      </trkpt>
      <trkpt lat="43.90268" lon="3.97706">
        <ele>124.009346</ele>
        <time>2014-06-22T08:50:05Z</time>
      </trkpt>
      <trkpt lat="43.90285" lon="3.97678">
        <ele>120.795753</ele>
        <time>2014-06-22T08:50:16Z</time>
      </trkpt>
      <trkpt lat="43.903" lon="3.97682">
        <ele>120.12117</ele>
        <time>2014-06-22T08:50:23Z</time>
      </trkpt>
      <trkpt lat="43.9034" lon="3.97704">
        <ele>118.715416</ele>
        <time>2014-06-22T08:50:34Z</time>
      </trkpt>
      <trkpt lat="43.90378" lon="3.97693">
        <ele>117.103104</ele>
        <time>2014-06-22T08:50:46Z</time>
      </trkpt>
      <trkpt lat="43.90407" lon="3.97688">
        <ele>115.854187</ele>
        <time>2014-06-22T08:50:51Z</time>
      </trkpt>
      <trkpt lat="43.90498" lon="3.97708">
        <ele>111.550003</ele>
        <time>2014-06-22T08:51:07Z</time>
      </trkpt>
      <trkpt lat="43.90539" lon="3.97733">
        <ele>108.243301</ele>
        <time>2014-06-22T08:51:15Z</time>
      </trkpt>
      <trkpt lat="43.90588" lon="3.97731">
        <ele>107.489555</ele>
        <time>2014-06-22T08:51:23Z</time>
      </trkpt>
      <trkpt lat="43.90628" lon="3.97731">
        <ele>106.305565</ele>
        <time>2014-06-22T08:51:34Z</time>
      </trkpt>
      <trkpt lat="43.90662" lon="3.97675">
        <ele>109.025002</ele>
        <time>2014-06-22T08:51:47Z</time>
      </trkpt>
      <trkpt lat="43.90697" lon="3.9766">
        <ele>109.447815</ele>
        <time>2014-06-22T08:51:55Z</time>
      </trkpt>
      <trkpt lat="43.90736" lon="3.9764">
        <ele>110.368065</ele>
        <time>2014-06-22T08:52:04Z</time>
      </trkpt>
      <trkpt lat="43.90788" lon="3.97632">
        <ele>111.442497</ele>
        <time>2014-06-22T08:52:15Z</time>
      </trkpt>
      <trkpt lat="43.90826" lon="3.97624">
        <ele>112.956772</ele>
        <time>2014-06-22T08:52:24Z</time>
      </trkpt>
      <trkpt lat="43.90853" lon="3.97585">
        <ele>115.017235</ele>
        <time>2014-06-22T08:52:35Z</time>
      </trkpt>
      <trkpt lat="43.90845" lon="3.97579">
        <ele>114.652344</ele>
        <time>2014-06-22T08:52:43Z</time>
      </trkpt>
      <trkpt lat="43.90813" lon="3.97575">
        <ele>112.81575</ele>
        <time>2014-06-22T08:53:04Z</time>
      </trkpt>
      <trkpt lat="43.90788" lon="3.97565">
        <ele>111.298859</ele>
        <time>2014-06-22T08:53:11Z</time>
      </trkpt>
      <trkpt lat="43.90773" lon="3.9758">
        <ele>111.174812</ele>
        <time>2014-06-22T08:53:49Z</time>
      </trkpt>
      <trkpt lat="43.9076" lon="3.97565">
        <ele>111.790482</ele>
        <time>2014-06-22T08:53:58Z</time>
      </trkpt>
      <trkpt lat="43.90762" lon="3.97545">
        <ele>112.942497</ele>
        <time>2014-06-22T08:54:04Z</time>
      </trkpt>
      <trkpt lat="43.90755" lon="3.97513">
        <ele>116.330002</ele>
        <time>2014-06-22T08:54:17Z</time>
      </trkpt>
      <trkpt lat="43.90752" lon="3.97489">
        <ele>118.758751</ele>
        <time>2014-06-22T08:54:27Z</time>
      </trkpt>
      <trkpt lat="43.90727" lon="3.97493">
        <ele>118.365196</ele>
        <time>2014-06-22T08:54:43Z</time>
      </trkpt>
      <trkpt lat="43.90722" lon="3.97478">
        <ele>119.326248</ele>
        <time>2014-06-22T08:54:52Z</time>
      </trkpt>
      <trkpt lat="43.90723" lon="3.97446">
        <ele>121.888748</ele>
        <time>2014-06-22T08:55:03Z</time>
      </trkpt>
      <trkpt lat="43.90698" lon="3.97401">
        <ele>123.474808</ele>
        <time>2014-06-22T08:55:19Z</time>
      </trkpt>
      <trkpt lat="43.90676" lon="3.97354">
        <ele>121.306252</ele>
        <time>2014-06-22T08:55:30Z</time>
      </trkpt>
      <trkpt lat="43.90667" lon="3.97345">
        <ele>119.911873</ele>
        <time>2014-06-22T08:55:36Z</time>
      </trkpt>
      <trkpt lat="43.90669" lon="3.97327">
        <ele>120.792206</ele>
        <time>2014-06-22T08:55:41Z</time>
      </trkpt>
      <trkpt lat="43.90659" lon="3.97333">
        <ele>118.863747</ele>
        <time>2014-06-22T08:56:27Z</time>
      </trkpt>
      <trkpt lat="43.90652" lon="3.97322">
        <ele>118.087288</ele>
        <time>2014-06-22T08:58:08Z</time>
      </trkpt>
      <trkpt lat="43.90653" lon="3.97296">
        <ele>119.920593</ele>
        <time>2014-06-22T08:58:20Z</time>
      </trkpt>
      <trkpt lat="43.90659" lon="3.97262">
        <ele>124.005615</ele>
        <time>2014-06-22T08:58:33Z</time>
      </trkpt>
      <trkpt lat="43.90664" lon="3.9723">
        <ele>127.593277</ele>
        <time>2014-06-22T08:58:45Z</time>
      </trkpt>
      <trkpt lat="43.90667" lon="3.97212">
        <ele>129.236893</ele>
        <time>2014-06-22T08:58:52Z</time>
      </trkpt>
      <trkpt lat="43.90658" lon="3.97143">
        <ele>127.855782</ele>
        <time>2014-06-22T08:59:13Z</time>
      </trkpt>
      <trkpt lat="43.90668" lon="3.97019">
        <ele>134.151474</ele>
        <time>2014-06-22T08:59:43Z</time>
      </trkpt>
      <trkpt lat="43.90681" lon="3.96946">
        <ele>135.707993</ele>
        <time>2014-06-22T09:00:00Z</time>
      </trkpt>
      <trkpt lat="43.90691" lon="3.96906">
        <ele>137.218185</ele>
        <time>2014-06-22T09:00:11Z</time>
      </trkpt>
      <trkpt lat="43.90705" lon="3.96887">
        <ele>139.188431</ele>
        <time>2014-06-22T09:00:21Z</time>
      </trkpt>
      <trkpt lat="43.90717" lon="3.96873">
        <ele>140.16597</ele>
        <time>2014-06-22T09:00:30Z</time>
      </trkpt>
      <trkpt lat="43.90719" lon="3.96845">
        <ele>143.122208</ele>
        <time>2014-06-22T09:00:40Z</time>
      </trkpt>
      <trkpt lat="43.90728" lon="3.96822">
        <ele>146.762253</ele>
        <time>2014-06-22T09:00:48Z</time>
      </trkpt>
      <trkpt lat="43.90714" lon="3.96772">
        <ele>145.247498</ele>
        <time>2014-06-22T09:01:02Z</time>
      </trkpt>
      <trkpt lat="43.90696" lon="3.96732">
        <ele>142.259872</ele>
        <time>2014-06-22T09:01:11Z</time>
      </trkpt>
      <trkpt lat="43.90709" lon="3.96687">
        <ele>142.776474</ele>
        <time>2014-06-22T09:01:22Z</time>
      </trkpt>
      <trkpt lat="43.90705" lon="3.96594">
        <ele>146.847855</ele>
        <time>2014-06-22T09:01:46Z</time>
      </trkpt>
      <trkpt lat="43.90711" lon="3.96543">
        <ele>149.44371</ele>
        <time>2014-06-22T09:02:02Z</time>
      </trkpt>
      <trkpt lat="43.90704" lon="3.96511">
        <ele>151.362198</ele>
        <time>2014-06-22T09:02:21Z</time>
      </trkpt>
      <trkpt lat="43.9071" lon="3.9649">
        <ele>151.789749</ele>
        <time>2014-06-22T09:02:35Z</time>
      </trkpt>
      <trkpt lat="43.90722" lon="3.96471">
        <ele>155.554153</ele>
        <time>2014-06-22T09:02:47Z</time>
      </trkpt>
      <trkpt lat="43.90736" lon="3.96445">
        <ele>158.526398</ele>
        <time>2014-06-22T09:02:59Z</time>
      </trkpt>
      <trkpt lat="43.90722" lon="3.96468">
        <ele>155.883408</ele>
        <time>2014-06-22T09:03:22Z</time>
      </trkpt>
      <trkpt lat="43.9072" lon="3.96491">
        <ele>153.960999</ele>
        <time>2014-06-22T09:03:32Z</time>
      </trkpt>
      <trkpt lat="43.90726" lon="3.96512">
        <ele>154.874374</ele>
        <time>2014-06-22T09:05:27Z</time>
      </trkpt>
      <trkpt lat="43.90731" lon="3.96551">
        <ele>155.9935</ele>
        <time>2014-06-22T09:05:41Z</time>
      </trkpt>
      <trkpt lat="43.9074" lon="3.96571">
        <ele>158.822495</ele>
        <time>2014-06-22T09:05:50Z</time>
      </trkpt>
      <trkpt lat="43.90746" lon="3.96608">
        <ele>159.267502</ele>
        <time>2014-06-22T09:06:02Z</time>
      </trkpt>
      <trkpt lat="43.90754" lon="3.96646">
        <ele>160.208801</ele>
        <time>2014-06-22T09:06:15Z</time>
      </trkpt>
      <trkpt lat="43.90757" lon="3.96677">
        <ele>159.698486</ele>
        <time>2014-06-22T09:06:26Z</time>
      </trkpt>
      <trkpt lat="43.90759" lon="3.96644">
        <ele>162.693405</ele>
        <time>2014-06-22T09:06:41Z</time>
      </trkpt>
      <trkpt lat="43.90758" lon="3.96609">
        <ele>163.919189</ele>
        <time>2014-06-22T09:06:57Z</time>
      </trkpt>
      <trkpt lat="43.9076" lon="3.96576">
        <ele>166.40477</ele>
        <time>2014-06-22T09:07:15Z</time>
      </trkpt>
      <trkpt lat="43.90764" lon="3.96599">
        <ele>167.16124</ele>
        <time>2014-06-22T09:07:26Z</time>
      </trkpt>
      <trkpt lat="43.90772" lon="3.96633">
        <ele>169.191498</ele>
        <time>2014-06-22T09:07:39Z</time>
      </trkpt>
      <trkpt lat="43.90786" lon="3.96667">
        <ele>172.160355</ele>
        <time>2014-06-22T09:07:52Z</time>
      </trkpt>
      <trkpt lat="43.90797" lon="3.96694">
        <ele>174.09787</ele>
        <time>2014-06-22T09:08:03Z</time>
      </trkpt>
      <trkpt lat="43.90815" lon="3.96718">
        <ele>177.464523</ele>
        <time>2014-06-22T09:08:16Z</time>
      </trkpt>
      <trkpt lat="43.90838" lon="3.96766">
        <ele>178.347504</ele>
        <time>2014-06-22T09:08:33Z</time>
      </trkpt>
      <trkpt lat="43.90869" lon="3.96795">
        <ele>182.437759</ele>
        <time>2014-06-22T09:08:50Z</time>
      </trkpt>
      <trkpt lat="43.90905" lon="3.96856">
        <ele>184.303223</ele>
        <time>2014-06-22T09:09:11Z</time>
      </trkpt>
      <trkpt lat="43.90929" lon="3.96901">
        <ele>182.369125</ele>
        <time>2014-06-22T09:09:26Z</time>
      </trkpt>
      <trkpt lat="43.90961" lon="3.96904">
        <ele>187.213882</ele>
        <time>2014-06-22T09:12:58Z</time>
      </trkpt>
      <trkpt lat="43.91008" lon="3.96911">
        <ele>189.695313</ele>
        <time>2014-06-22T09:13:11Z</time>
      </trkpt>
      <trkpt lat="43.91048" lon="3.96936">
        <ele>187.413498</ele>
        <time>2014-06-22T09:13:20Z</time>
      </trkpt>
      <trkpt lat="43.91116" lon="3.9699">
        <ele>182.457932</ele>
        <time>2014-06-22T09:13:35Z</time>
      </trkpt>
      <trkpt lat="43.91139" lon="3.97019">
        <ele>180.568756</ele>
        <time>2014-06-22T09:13:43Z</time>
      </trkpt>
      <trkpt lat="43.91172" lon="3.9706">
        <ele>177.670456</ele>
        <time>2014-06-22T09:13:53Z</time>
      </trkpt>
      <trkpt lat="43.91236" lon="3.97074">
        <ele>181.750397</ele>
        <time>2014-06-22T09:14:08Z</time>
      </trkpt>
      <trkpt lat="43.91273" lon="3.9712">
        <ele>172.308746</ele>
        <time>2014-06-22T09:14:16Z</time>
      </trkpt>
      <trkpt lat="43.91275" lon="3.9714">
        <ele>167.074615</ele>
        <time>2014-06-22T09:14:22Z</time>
      </trkpt>
      <trkpt lat="43.9127" lon="3.97165">
        <ele>160.374832</ele>
        <time>2014-06-22T09:14:29Z</time>
      </trkpt>
      <trkpt lat="43.9125" lon="3.97178">
        <ele>156.059845</ele>
        <time>2014-06-22T09:14:34Z</time>
      </trkpt>
      <trkpt lat="43.91239" lon="3.97198">
        <ele>150.569992</ele>
        <time>2014-06-22T09:14:39Z</time>
      </trkpt>
      <trkpt lat="43.91233" lon="3.97222">
        <ele>145.288452</ele>
        <time>2014-06-22T09:14:44Z</time>
      </trkpt>
      <trkpt lat="43.91232" lon="3.97254">
        <ele>138.452988</ele>
        <time>2014-06-22T09:14:49Z</time>
      </trkpt>
      <trkpt lat="43.91236" lon="3.97286">
        <ele>133.852493</ele>
        <time>2014-06-22T09:14:55Z</time>
      </trkpt>
      <trkpt lat="43.91219" lon="3.97308">
        <ele>129.907501</ele>
        <time>2014-06-22T09:15:00Z</time>
      </trkpt>
      <trkpt lat="43.91222" lon="3.97346">
        <ele>125.922264</ele>
        <time>2014-06-22T09:15:07Z</time>
      </trkpt>
      <trkpt lat="43.91227" lon="3.97382">
        <ele>122.812256</ele>
        <time>2014-06-22T09:15:13Z</time>
      </trkpt>
      <trkpt lat="43.91223" lon="3.97406">
        <ele>120.648743</ele>
        <time>2014-06-22T09:15:18Z</time>
      </trkpt>
      <trkpt lat="43.9122" lon="3.97426">
        <ele>118.907562</ele>
        <time>2014-06-22T09:15:23Z</time>
      </trkpt>
      <trkpt lat="43.91217" lon="3.9745">
        <ele>116.727501</ele>
        <time>2014-06-22T09:16:44Z</time>
      </trkpt>
      <trkpt lat="43.91206" lon="3.97477">
        <ele>114.044998</ele>
        <time>2014-06-22T09:16:50Z</time>
      </trkpt>
      <trkpt lat="43.91202" lon="3.97501">
        <ele>111.970001</ele>
        <time>2014-06-22T09:17:03Z</time>
      </trkpt>
      <trkpt lat="43.91217" lon="3.97505">
        <ele>112.337502</ele>
        <time>2014-06-22T09:17:18Z</time>
      </trkpt>
      <trkpt lat="43.91241" lon="3.97502">
        <ele>113.445129</ele>
        <time>2014-06-22T09:17:23Z</time>
      </trkpt>
      <trkpt lat="43.91268" lon="3.97512">
        <ele>112.360001</ele>
        <time>2014-06-22T09:17:28Z</time>
      </trkpt>
      <trkpt lat="43.91283" lon="3.97535">
        <ele>109.865692</ele>
        <time>2014-06-22T09:17:38Z</time>
      </trkpt>
      <trkpt lat="43.913" lon="3.97552">
        <ele>109.423264</ele>
        <time>2014-06-22T09:18:01Z</time>
      </trkpt>
      <trkpt lat="43.91319" lon="3.97571">
        <ele>109.695587</ele>
        <time>2014-06-22T09:18:09Z</time>
      </trkpt>
      <trkpt lat="43.91328" lon="3.97586">
        <ele>107.929398</ele>
        <time>2014-06-22T09:18:16Z</time>
      </trkpt>
      <trkpt lat="43.91335" lon="3.97622">
        <ele>103.646812</ele>
        <time>2014-06-22T09:18:26Z</time>
      </trkpt>
      <trkpt lat="43.91345" lon="3.97653">
        <ele>102.205002</ele>
        <time>2014-06-22T09:18:32Z</time>
      </trkpt>
      <trkpt lat="43.91341" lon="3.97672">
        <ele>100.037498</ele>
        <time>2014-06-22T09:18:45Z</time>
      </trkpt>
      <trkpt lat="43.91327" lon="3.97706">
        <ele>96.7425</ele>
        <time>2014-06-22T09:18:54Z</time>
      </trkpt>
      <trkpt lat="43.91323" lon="3.97741">
        <ele>99.8181</ele>
        <time>2014-06-22T09:19:00Z</time>
      </trkpt>
      <trkpt lat="43.91335" lon="3.97789">
        <ele>103.926109</ele>
        <time>2014-06-22T09:19:13Z</time>
      </trkpt>
      <trkpt lat="43.91363" lon="3.97837">
        <ele>105.591736</ele>
        <time>2014-06-22T09:19:32Z</time>
      </trkpt>
      <trkpt lat="43.9139" lon="3.9786">
        <ele>104.561455</ele>
        <time>2014-06-22T09:19:44Z</time>
      </trkpt>
      <trkpt lat="43.91442" lon="3.97955">
        <ele>107.221184</ele>
        <time>2014-06-22T09:20:08Z</time>
      </trkpt>
      <trkpt lat="43.91443" lon="3.9804">
        <ele>101.184967</ele>
        <time>2014-06-22T09:20:20Z</time>
      </trkpt>
      <trkpt lat="43.9143" lon="3.98103">
        <ele>92.153748</ele>
        <time>2014-06-22T09:20:28Z</time>
      </trkpt>
      <trkpt lat="43.91401" lon="3.98129">
        <ele>96.105888</ele>
        <time>2014-06-22T09:20:34Z</time>
      </trkpt>
      <trkpt lat="43.91379" lon="3.98145">
        <ele>96.75383</ele>
        <time>2014-06-22T09:20:40Z</time>
      </trkpt>
      <trkpt lat="43.91355" lon="3.98175">
        <ele>97.081322</ele>
        <time>2014-06-22T09:20:47Z</time>
      </trkpt>
      <trkpt lat="43.91328" lon="3.98208">
        <ele>96.978889</ele>
        <time>2014-06-22T09:20:59Z</time>
      </trkpt>
      <trkpt lat="43.91314" lon="3.98267">
        <ele>96.598145</ele>
        <time>2014-06-22T09:21:09Z</time>
      </trkpt>
      <trkpt lat="43.91315" lon="3.98329">
        <ele>94.80986</ele>
        <time>2014-06-22T09:21:20Z</time>
      </trkpt>
      <trkpt lat="43.91301" lon="3.98373">
        <ele>92.572502</ele>
        <time>2014-06-22T09:21:28Z</time>
      </trkpt>
      <trkpt lat="43.91281" lon="3.98419">
        <ele>87.863281</ele>
        <time>2014-06-22T09:21:35Z</time>
      </trkpt>
      <trkpt lat="43.91288" lon="3.98459">
        <ele>84.925453</ele>
        <time>2014-06-22T09:21:40Z</time>
      </trkpt>
      <trkpt lat="43.91299" lon="3.98509">
        <ele>82.727539</ele>
        <time>2014-06-22T09:21:45Z</time>
      </trkpt>
      <trkpt lat="43.91296" lon="3.98596">
        <ele>83.73735</ele>
        <time>2014-06-22T09:21:54Z</time>
      </trkpt>
      <trkpt lat="43.91258" lon="3.98637">
        <ele>85.499565</ele>
        <time>2014-06-22T09:22:03Z</time>
      </trkpt>
      <trkpt lat="43.9123" lon="3.98665">
        <ele>84.22039</ele>
        <time>2014-06-22T09:22:10Z</time>
      </trkpt>
      <trkpt lat="43.91158" lon="3.98692">
        <ele>83.415001</ele>
        <time>2014-06-22T09:22:24Z</time>
      </trkpt>
      <trkpt lat="43.91175" lon="3.98787">
        <ele>76.754997</ele>
        <time>2014-06-22T09:22:37Z</time>
      </trkpt>
      <trkpt lat="43.91205" lon="3.98933">
        <ele>76</ele>
        <time>2014-06-22T09:22:57Z</time>
      </trkpt>
      <trkpt lat="43.91242" lon="3.98978">
        <ele>75.32</ele>
        <time>2014-06-22T09:23:07Z</time>
      </trkpt>
      <trkpt lat="43.91246" lon="3.99054">
        <ele>75.901306</ele>
        <time>2014-06-22T09:23:18Z</time>
      </trkpt>
      <trkpt lat="43.9123" lon="3.99167">
        <ele>77</ele>
        <time>2014-06-22T09:23:39Z</time>
      </trkpt>
      <trkpt lat="43.9124" lon="3.99205">
        <ele>77.309998</ele>
        <time>2014-06-22T09:23:46Z</time>
      </trkpt>
      <trkpt lat="43.91276" lon="3.99296">
        <ele>77.865578</ele>
        <time>2014-06-22T09:24:02Z</time>
      </trkpt>
      <trkpt lat="43.91289" lon="3.99366">
        <ele>78</ele>
        <time>2014-06-22T09:24:12Z</time>
      </trkpt>
      <trkpt lat="43.91275" lon="3.99437">
        <ele>79.629997</ele>
        <time>2014-06-22T09:24:27Z</time>
      </trkpt>
      <trkpt lat="43.91258" lon="3.99471">
        <ele>80.354996</ele>
        <time>2014-06-22T09:24:38Z</time>
      </trkpt>
      <trkpt lat="43.91244" lon="3.99502">
        <ele>81.077499</ele>
        <time>2014-06-22T09:24:54Z</time>
      </trkpt>
    </trkseg>
  </trk>
</gpx>